<?xml version="1.0" encoding="UTF-8" standalone="no" ?>
<gpx xmlns="http://www.topografix.com/GPX/1/1" xmlns:xsi="http://www.w3.org/2001/XMLSchema-instance" xsi:schemaLocation="http://www.topografix.com/GPX/1/1 http://www.topografix.com/GPX/1/1/gpx.xsd" version="1.1" creator="VisuGPX - https://www.visugpx.com">
  <metadata>
    <name>Circuit Footing (VTT) autour de Saint Sébastien de Morsent</name>
    <desc><![CDATA[Ce circuit pédestre peut aussi ce faire en VTT.
40% du circuit sur route, 60% sur chemin de terre.
Le circuit est particulièrement vallonné. ]]></desc>
  </metadata>
  <wpt lat="38.85555" lon="-94.79902">
    <ele>3.01</ele>
    <name><![CDATA[GARMIN]]></name>
  </wpt>
  <wpt lat="50.98288" lon="-1.4639">
    <ele>3.01</ele>
    <name><![CDATA[GRMEUR]]></name>
  </wpt>
  <wpt lat="25.06178" lon="121.64027">
    <ele>3.01</ele>
    <name><![CDATA[GRMTWN]]></name>
  </wpt>
  <wpt lat="43.57746" lon="1.45163">
    <ele>97.22</ele>
    <name><![CDATA[MAP]]></name>
  </wpt>
  <trk>
    <name><![CDATA[ACTIVE LOG: 06 FEV 2011 08:09]]></name>
    <trkseg>
      <trkpt lat="49.00236" lon="1.0896">
        <ele>56.86</ele>
        <time>2011-02-06T07:09:05Z</time>
      </trkpt>
      <trkpt lat="49.00237" lon="1.08932">
        <ele>58.3</ele>
        <time>2011-02-06T07:09:21Z</time>
      </trkpt>
      <trkpt lat="49.00237" lon="1.08933">
        <ele>61.18</ele>
        <time>2011-02-06T07:11:00Z</time>
      </trkpt>
      <trkpt lat="49.00237" lon="1.08933">
        <ele>64.55</ele>
        <time>2011-02-06T07:12:41Z</time>
      </trkpt>
      <trkpt lat="49.00237" lon="1.08933">
        <ele>67.91</ele>
        <time>2011-02-06T07:14:30Z</time>
      </trkpt>
      <trkpt lat="49.00238" lon="1.08931">
        <ele>67.91</ele>
        <time>2011-02-06T07:15:24Z</time>
      </trkpt>
      <trkpt lat="49.00236" lon="1.0895">
        <ele>68.39</ele>
        <time>2011-02-06T07:15:33Z</time>
      </trkpt>
      <trkpt lat="49.00232" lon="1.08953">
        <ele>68.87</ele>
        <time>2011-02-06T07:15:35Z</time>
      </trkpt>
      <trkpt lat="49.00207" lon="1.08954">
        <ele>68.87</ele>
        <time>2011-02-06T07:15:44Z</time>
      </trkpt>
      <trkpt lat="49.0021" lon="1.09002">
        <ele>69.35</ele>
        <time>2011-02-06T07:15:56Z</time>
      </trkpt>
      <trkpt lat="49.00228" lon="1.09045">
        <ele>67.91</ele>
        <time>2011-02-06T07:16:07Z</time>
      </trkpt>
      <trkpt lat="49.00249" lon="1.09091">
        <ele>68.39</ele>
        <time>2011-02-06T07:16:20Z</time>
      </trkpt>
      <trkpt lat="49.00241" lon="1.09117">
        <ele>68.87</ele>
        <time>2011-02-06T07:16:28Z</time>
      </trkpt>
      <trkpt lat="49.00231" lon="1.09128">
        <ele>68.87</ele>
        <time>2011-02-06T07:16:33Z</time>
      </trkpt>
      <trkpt lat="49.00195" lon="1.09139">
        <ele>69.83</ele>
        <time>2011-02-06T07:16:47Z</time>
      </trkpt>
      <trkpt lat="49.00162" lon="1.09155">
        <ele>70.79</ele>
        <time>2011-02-06T07:17:00Z</time>
      </trkpt>
      <trkpt lat="49.0014" lon="1.09191">
        <ele>72.24</ele>
        <time>2011-02-06T07:17:12Z</time>
      </trkpt>
      <trkpt lat="49.00132" lon="1.09237">
        <ele>70.79</ele>
        <time>2011-02-06T07:17:24Z</time>
      </trkpt>
      <trkpt lat="49.00144" lon="1.09276">
        <ele>70.31</ele>
        <time>2011-02-06T07:17:36Z</time>
      </trkpt>
      <trkpt lat="49.00156" lon="1.09315">
        <ele>71.76</ele>
        <time>2011-02-06T07:17:48Z</time>
      </trkpt>
      <trkpt lat="49.00159" lon="1.09354">
        <ele>68.87</ele>
        <time>2011-02-06T07:18:00Z</time>
      </trkpt>
      <trkpt lat="49.0016" lon="1.09381">
        <ele>65.03</ele>
        <time>2011-02-06T07:18:08Z</time>
      </trkpt>
      <trkpt lat="49.0016" lon="1.09389">
        <ele>64.07</ele>
        <time>2011-02-06T07:18:10Z</time>
      </trkpt>
      <trkpt lat="49.0016" lon="1.09418">
        <ele>60.7</ele>
        <time>2011-02-06T07:18:17Z</time>
      </trkpt>
      <trkpt lat="49.00161" lon="1.09425">
        <ele>60.22</ele>
        <time>2011-02-06T07:18:19Z</time>
      </trkpt>
      <trkpt lat="49.00161" lon="1.09448">
        <ele>56.86</ele>
        <time>2011-02-06T07:18:25Z</time>
      </trkpt>
      <trkpt lat="49.00162" lon="1.0948">
        <ele>53.97</ele>
        <time>2011-02-06T07:18:33Z</time>
      </trkpt>
      <trkpt lat="49.00164" lon="1.09502">
        <ele>50.13</ele>
        <time>2011-02-06T07:18:39Z</time>
      </trkpt>
      <trkpt lat="49.00164" lon="1.09506">
        <ele>50.13</ele>
        <time>2011-02-06T07:18:40Z</time>
      </trkpt>
      <trkpt lat="49.00164" lon="1.09532">
        <ele>46.76</ele>
        <time>2011-02-06T07:18:47Z</time>
      </trkpt>
      <trkpt lat="49.00162" lon="1.09563">
        <ele>42.92</ele>
        <time>2011-02-06T07:18:54Z</time>
      </trkpt>
      <trkpt lat="49.00162" lon="1.09572">
        <ele>41.47</ele>
        <time>2011-02-06T07:18:57Z</time>
      </trkpt>
      <trkpt lat="49.00162" lon="1.09602">
        <ele>37.15</ele>
        <time>2011-02-06T07:19:04Z</time>
      </trkpt>
      <trkpt lat="49.00162" lon="1.09629">
        <ele>33.78</ele>
        <time>2011-02-06T07:19:10Z</time>
      </trkpt>
      <trkpt lat="49.00163" lon="1.09641">
        <ele>32.34</ele>
        <time>2011-02-06T07:19:13Z</time>
      </trkpt>
      <trkpt lat="49.00163" lon="1.09645">
        <ele>31.86</ele>
        <time>2011-02-06T07:19:14Z</time>
      </trkpt>
      <trkpt lat="49.00165" lon="1.09664">
        <ele>29.46</ele>
        <time>2011-02-06T07:19:19Z</time>
      </trkpt>
      <trkpt lat="49.00168" lon="1.09701">
        <ele>26.09</ele>
        <time>2011-02-06T07:19:26Z</time>
      </trkpt>
      <trkpt lat="49.00169" lon="1.09707">
        <ele>26.09</ele>
        <time>2011-02-06T07:19:27Z</time>
      </trkpt>
      <trkpt lat="49.00187" lon="1.09756">
        <ele>24.65</ele>
        <time>2011-02-06T07:19:39Z</time>
      </trkpt>
      <trkpt lat="49.0021" lon="1.09795">
        <ele>25.61</ele>
        <time>2011-02-06T07:19:52Z</time>
      </trkpt>
      <trkpt lat="49.00229" lon="1.09832">
        <ele>24.65</ele>
        <time>2011-02-06T07:20:04Z</time>
      </trkpt>
      <trkpt lat="49.00239" lon="1.09857">
        <ele>28.02</ele>
        <time>2011-02-06T07:20:11Z</time>
      </trkpt>
      <trkpt lat="49.00239" lon="1.09861">
        <ele>22.73</ele>
        <time>2011-02-06T07:20:12Z</time>
      </trkpt>
      <trkpt lat="49.00231" lon="1.09903">
        <ele>24.17</ele>
        <time>2011-02-06T07:20:23Z</time>
      </trkpt>
      <trkpt lat="49.00199" lon="1.09932">
        <ele>25.61</ele>
        <time>2011-02-06T07:20:38Z</time>
      </trkpt>
      <trkpt lat="49.00188" lon="1.09942">
        <ele>20.81</ele>
        <time>2011-02-06T07:20:43Z</time>
      </trkpt>
      <trkpt lat="49.00186" lon="1.09945">
        <ele>24.17</ele>
        <time>2011-02-06T07:20:44Z</time>
      </trkpt>
      <trkpt lat="49.0018" lon="1.09951">
        <ele>22.25</ele>
        <time>2011-02-06T07:20:47Z</time>
      </trkpt>
      <trkpt lat="49.00176" lon="1.09955">
        <ele>25.61</ele>
        <time>2011-02-06T07:20:49Z</time>
      </trkpt>
      <trkpt lat="49.00152" lon="1.09978">
        <ele>25.13</ele>
        <time>2011-02-06T07:21:00Z</time>
      </trkpt>
      <trkpt lat="49.00124" lon="1.10004">
        <ele>25.13</ele>
        <time>2011-02-06T07:21:13Z</time>
      </trkpt>
      <trkpt lat="49.00108" lon="1.10019">
        <ele>23.69</ele>
        <time>2011-02-06T07:21:20Z</time>
      </trkpt>
      <trkpt lat="49.0008" lon="1.10045">
        <ele>25.61</ele>
        <time>2011-02-06T07:21:33Z</time>
      </trkpt>
      <trkpt lat="49.00077" lon="1.10047">
        <ele>25.13</ele>
        <time>2011-02-06T07:21:34Z</time>
      </trkpt>
      <trkpt lat="49.00065" lon="1.10052">
        <ele>28.5</ele>
        <time>2011-02-06T07:21:39Z</time>
      </trkpt>
      <trkpt lat="49.00057" lon="1.10054">
        <ele>22.25</ele>
        <time>2011-02-06T07:21:42Z</time>
      </trkpt>
      <trkpt lat="49.00055" lon="1.10055">
        <ele>27.05</ele>
        <time>2011-02-06T07:21:43Z</time>
      </trkpt>
      <trkpt lat="49.00025" lon="1.10065">
        <ele>27.53</ele>
        <time>2011-02-06T07:21:55Z</time>
      </trkpt>
      <trkpt lat="49.00004" lon="1.10075">
        <ele>27.05</ele>
        <time>2011-02-06T07:22:04Z</time>
      </trkpt>
      <trkpt lat="48.99997" lon="1.10079">
        <ele>23.69</ele>
        <time>2011-02-06T07:22:07Z</time>
      </trkpt>
      <trkpt lat="48.99995" lon="1.1008">
        <ele>27.05</ele>
        <time>2011-02-06T07:22:08Z</time>
      </trkpt>
      <trkpt lat="48.99965" lon="1.10098">
        <ele>26.09</ele>
        <time>2011-02-06T07:22:21Z</time>
      </trkpt>
      <trkpt lat="48.99949" lon="1.10107">
        <ele>29.94</ele>
        <time>2011-02-06T07:22:28Z</time>
      </trkpt>
      <trkpt lat="48.99944" lon="1.10104">
        <ele>27.05</ele>
        <time>2011-02-06T07:22:31Z</time>
      </trkpt>
      <trkpt lat="48.9994" lon="1.10086">
        <ele>27.05</ele>
        <time>2011-02-06T07:22:36Z</time>
      </trkpt>
      <trkpt lat="48.9994" lon="1.10076">
        <ele>29.46</ele>
        <time>2011-02-06T07:22:39Z</time>
      </trkpt>
      <trkpt lat="48.99939" lon="1.10072">
        <ele>26.57</ele>
        <time>2011-02-06T07:22:40Z</time>
      </trkpt>
      <trkpt lat="48.99929" lon="1.10042">
        <ele>26.57</ele>
        <time>2011-02-06T07:22:50Z</time>
      </trkpt>
      <trkpt lat="48.99923" lon="1.10023">
        <ele>26.09</ele>
        <time>2011-02-06T07:22:55Z</time>
      </trkpt>
      <trkpt lat="48.99914" lon="1.09997">
        <ele>26.57</ele>
        <time>2011-02-06T07:23:03Z</time>
      </trkpt>
      <trkpt lat="48.99903" lon="1.09959">
        <ele>26.09</ele>
        <time>2011-02-06T07:23:16Z</time>
      </trkpt>
      <trkpt lat="48.99899" lon="1.09949">
        <ele>29.46</ele>
        <time>2011-02-06T07:23:19Z</time>
      </trkpt>
      <trkpt lat="48.99898" lon="1.09945">
        <ele>29.46</ele>
        <time>2011-02-06T07:23:20Z</time>
      </trkpt>
      <trkpt lat="48.99896" lon="1.09939">
        <ele>27.05</ele>
        <time>2011-02-06T07:23:22Z</time>
      </trkpt>
      <trkpt lat="48.99889" lon="1.09919">
        <ele>30.42</ele>
        <time>2011-02-06T07:23:28Z</time>
      </trkpt>
      <trkpt lat="48.99888" lon="1.09916">
        <ele>28.5</ele>
        <time>2011-02-06T07:23:29Z</time>
      </trkpt>
      <trkpt lat="48.9987" lon="1.0987">
        <ele>27.05</ele>
        <time>2011-02-06T07:23:40Z</time>
      </trkpt>
      <trkpt lat="48.99863" lon="1.0985">
        <ele>26.09</ele>
        <time>2011-02-06T07:23:46Z</time>
      </trkpt>
      <trkpt lat="48.99861" lon="1.09843">
        <ele>27.53</ele>
        <time>2011-02-06T07:23:48Z</time>
      </trkpt>
      <trkpt lat="48.99856" lon="1.09829">
        <ele>28.98</ele>
        <time>2011-02-06T07:23:52Z</time>
      </trkpt>
      <trkpt lat="48.99838" lon="1.09783">
        <ele>31.86</ele>
        <time>2011-02-06T07:24:05Z</time>
      </trkpt>
      <trkpt lat="48.99836" lon="1.09776">
        <ele>28.5</ele>
        <time>2011-02-06T07:24:07Z</time>
      </trkpt>
      <trkpt lat="48.99834" lon="1.09763">
        <ele>27.53</ele>
        <time>2011-02-06T07:24:11Z</time>
      </trkpt>
      <trkpt lat="48.9983" lon="1.09725">
        <ele>30.42</ele>
        <time>2011-02-06T07:24:22Z</time>
      </trkpt>
      <trkpt lat="48.99828" lon="1.09703">
        <ele>27.05</ele>
        <time>2011-02-06T07:24:28Z</time>
      </trkpt>
      <trkpt lat="48.99827" lon="1.09695">
        <ele>31.86</ele>
        <time>2011-02-06T07:24:30Z</time>
      </trkpt>
      <trkpt lat="48.99825" lon="1.09683">
        <ele>27.53</ele>
        <time>2011-02-06T07:24:33Z</time>
      </trkpt>
      <trkpt lat="48.99822" lon="1.09655">
        <ele>31.38</ele>
        <time>2011-02-06T07:24:40Z</time>
      </trkpt>
      <trkpt lat="48.99822" lon="1.09652">
        <ele>31.38</ele>
        <time>2011-02-06T07:24:41Z</time>
      </trkpt>
      <trkpt lat="48.99821" lon="1.09633">
        <ele>28.02</ele>
        <time>2011-02-06T07:24:46Z</time>
      </trkpt>
      <trkpt lat="48.9982" lon="1.09629">
        <ele>30.9</ele>
        <time>2011-02-06T07:24:47Z</time>
      </trkpt>
      <trkpt lat="48.99818" lon="1.09611">
        <ele>28.02</ele>
        <time>2011-02-06T07:24:52Z</time>
      </trkpt>
      <trkpt lat="48.99817" lon="1.09604">
        <ele>31.86</ele>
        <time>2011-02-06T07:24:54Z</time>
      </trkpt>
      <trkpt lat="48.9981" lon="1.09559">
        <ele>28.02</ele>
        <time>2011-02-06T07:25:06Z</time>
      </trkpt>
      <trkpt lat="48.99809" lon="1.09555">
        <ele>28.98</ele>
        <time>2011-02-06T07:25:07Z</time>
      </trkpt>
      <trkpt lat="48.99808" lon="1.09552">
        <ele>32.34</ele>
        <time>2011-02-06T07:25:08Z</time>
      </trkpt>
      <trkpt lat="48.99807" lon="1.09549">
        <ele>30.42</ele>
        <time>2011-02-06T07:25:09Z</time>
      </trkpt>
      <trkpt lat="48.9979" lon="1.09495">
        <ele>31.38</ele>
        <time>2011-02-06T07:25:24Z</time>
      </trkpt>
      <trkpt lat="48.99783" lon="1.09476">
        <ele>31.86</ele>
        <time>2011-02-06T07:25:29Z</time>
      </trkpt>
      <trkpt lat="48.99778" lon="1.09462">
        <ele>32.82</ele>
        <time>2011-02-06T07:25:33Z</time>
      </trkpt>
      <trkpt lat="48.99776" lon="1.09454">
        <ele>31.38</ele>
        <time>2011-02-06T07:25:35Z</time>
      </trkpt>
      <trkpt lat="48.99773" lon="1.09447">
        <ele>28.5</ele>
        <time>2011-02-06T07:25:37Z</time>
      </trkpt>
      <trkpt lat="48.9977" lon="1.0944">
        <ele>31.38</ele>
        <time>2011-02-06T07:25:39Z</time>
      </trkpt>
      <trkpt lat="48.99756" lon="1.09397">
        <ele>33.78</ele>
        <time>2011-02-06T07:25:51Z</time>
      </trkpt>
      <trkpt lat="48.99748" lon="1.09372">
        <ele>29.94</ele>
        <time>2011-02-06T07:25:58Z</time>
      </trkpt>
      <trkpt lat="48.99747" lon="1.09368">
        <ele>33.3</ele>
        <time>2011-02-06T07:25:59Z</time>
      </trkpt>
      <trkpt lat="48.99737" lon="1.09329">
        <ele>30.42</ele>
        <time>2011-02-06T07:26:10Z</time>
      </trkpt>
      <trkpt lat="48.99725" lon="1.09284">
        <ele>31.86</ele>
        <time>2011-02-06T07:26:23Z</time>
      </trkpt>
      <trkpt lat="48.99723" lon="1.09277">
        <ele>30.42</ele>
        <time>2011-02-06T07:26:25Z</time>
      </trkpt>
      <trkpt lat="48.9972" lon="1.09262">
        <ele>33.78</ele>
        <time>2011-02-06T07:26:30Z</time>
      </trkpt>
      <trkpt lat="48.9972" lon="1.09259">
        <ele>31.86</ele>
        <time>2011-02-06T07:26:31Z</time>
      </trkpt>
      <trkpt lat="48.99711" lon="1.09225">
        <ele>31.38</ele>
        <time>2011-02-06T07:26:41Z</time>
      </trkpt>
      <trkpt lat="48.99702" lon="1.0918">
        <ele>30.9</ele>
        <time>2011-02-06T07:26:53Z</time>
      </trkpt>
      <trkpt lat="48.997" lon="1.09174">
        <ele>33.78</ele>
        <time>2011-02-06T07:26:55Z</time>
      </trkpt>
      <trkpt lat="48.99691" lon="1.09139">
        <ele>36.67</ele>
        <time>2011-02-06T07:27:04Z</time>
      </trkpt>
      <trkpt lat="48.9969" lon="1.09136">
        <ele>36.19</ele>
        <time>2011-02-06T07:27:05Z</time>
      </trkpt>
      <trkpt lat="48.99689" lon="1.09133">
        <ele>29.94</ele>
        <time>2011-02-06T07:27:06Z</time>
      </trkpt>
      <trkpt lat="48.99687" lon="1.0913">
        <ele>31.38</ele>
        <time>2011-02-06T07:27:07Z</time>
      </trkpt>
      <trkpt lat="48.99684" lon="1.09124">
        <ele>32.34</ele>
        <time>2011-02-06T07:27:09Z</time>
      </trkpt>
      <trkpt lat="48.9968" lon="1.09117">
        <ele>35.71</ele>
        <time>2011-02-06T07:27:11Z</time>
      </trkpt>
      <trkpt lat="48.99679" lon="1.09114">
        <ele>33.78</ele>
        <time>2011-02-06T07:27:12Z</time>
      </trkpt>
      <trkpt lat="48.99665" lon="1.09069">
        <ele>35.23</ele>
        <time>2011-02-06T07:27:24Z</time>
      </trkpt>
      <trkpt lat="48.99663" lon="1.09062">
        <ele>31.86</ele>
        <time>2011-02-06T07:27:26Z</time>
      </trkpt>
      <trkpt lat="48.99663" lon="1.09059">
        <ele>35.23</ele>
        <time>2011-02-06T07:27:27Z</time>
      </trkpt>
      <trkpt lat="48.99662" lon="1.09055">
        <ele>31.38</ele>
        <time>2011-02-06T07:27:28Z</time>
      </trkpt>
      <trkpt lat="48.99662" lon="1.09051">
        <ele>37.63</ele>
        <time>2011-02-06T07:27:29Z</time>
      </trkpt>
      <trkpt lat="48.99661" lon="1.09048">
        <ele>37.63</ele>
        <time>2011-02-06T07:27:30Z</time>
      </trkpt>
      <trkpt lat="48.99661" lon="1.09041">
        <ele>33.78</ele>
        <time>2011-02-06T07:27:32Z</time>
      </trkpt>
      <trkpt lat="48.99661" lon="1.09034">
        <ele>37.15</ele>
        <time>2011-02-06T07:27:34Z</time>
      </trkpt>
      <trkpt lat="48.99661" lon="1.0903">
        <ele>32.82</ele>
        <time>2011-02-06T07:27:35Z</time>
      </trkpt>
      <trkpt lat="48.99653" lon="1.08986">
        <ele>34.26</ele>
        <time>2011-02-06T07:27:47Z</time>
      </trkpt>
      <trkpt lat="48.99637" lon="1.08945">
        <ele>33.3</ele>
        <time>2011-02-06T07:27:59Z</time>
      </trkpt>
      <trkpt lat="48.99634" lon="1.08938">
        <ele>36.67</ele>
        <time>2011-02-06T07:28:01Z</time>
      </trkpt>
      <trkpt lat="48.99625" lon="1.08905">
        <ele>33.3</ele>
        <time>2011-02-06T07:28:11Z</time>
      </trkpt>
      <trkpt lat="48.99621" lon="1.08892">
        <ele>37.15</ele>
        <time>2011-02-06T07:28:15Z</time>
      </trkpt>
      <trkpt lat="48.99607" lon="1.08851">
        <ele>34.74</ele>
        <time>2011-02-06T07:28:27Z</time>
      </trkpt>
      <trkpt lat="48.99596" lon="1.08818">
        <ele>37.63</ele>
        <time>2011-02-06T07:28:37Z</time>
      </trkpt>
      <trkpt lat="48.99594" lon="1.08808">
        <ele>34.74</ele>
        <time>2011-02-06T07:28:40Z</time>
      </trkpt>
      <trkpt lat="48.9959" lon="1.08798">
        <ele>36.19</ele>
        <time>2011-02-06T07:28:43Z</time>
      </trkpt>
      <trkpt lat="48.99587" lon="1.08789">
        <ele>37.15</ele>
        <time>2011-02-06T07:28:45Z</time>
      </trkpt>
      <trkpt lat="48.99577" lon="1.08751">
        <ele>35.23</ele>
        <time>2011-02-06T07:28:57Z</time>
      </trkpt>
      <trkpt lat="48.99574" lon="1.08741">
        <ele>36.67</ele>
        <time>2011-02-06T07:29:00Z</time>
      </trkpt>
      <trkpt lat="48.99573" lon="1.08736">
        <ele>33.78</ele>
        <time>2011-02-06T07:29:01Z</time>
      </trkpt>
      <trkpt lat="48.99572" lon="1.08732">
        <ele>37.15</ele>
        <time>2011-02-06T07:29:02Z</time>
      </trkpt>
      <trkpt lat="48.99571" lon="1.08728">
        <ele>33.78</ele>
        <time>2011-02-06T07:29:03Z</time>
      </trkpt>
      <trkpt lat="48.99565" lon="1.08707">
        <ele>37.63</ele>
        <time>2011-02-06T07:29:09Z</time>
      </trkpt>
      <trkpt lat="48.99556" lon="1.08676">
        <ele>34.26</ele>
        <time>2011-02-06T07:29:17Z</time>
      </trkpt>
      <trkpt lat="48.99554" lon="1.08669">
        <ele>39.55</ele>
        <time>2011-02-06T07:29:19Z</time>
      </trkpt>
      <trkpt lat="48.99553" lon="1.08665">
        <ele>35.71</ele>
        <time>2011-02-06T07:29:20Z</time>
      </trkpt>
      <trkpt lat="48.99548" lon="1.08643">
        <ele>38.59</ele>
        <time>2011-02-06T07:29:27Z</time>
      </trkpt>
      <trkpt lat="48.99547" lon="1.08639">
        <ele>38.59</ele>
        <time>2011-02-06T07:29:28Z</time>
      </trkpt>
      <trkpt lat="48.99545" lon="1.08632">
        <ele>34.26</ele>
        <time>2011-02-06T07:29:30Z</time>
      </trkpt>
      <trkpt lat="48.99544" lon="1.08628">
        <ele>35.71</ele>
        <time>2011-02-06T07:29:31Z</time>
      </trkpt>
      <trkpt lat="48.99539" lon="1.08607">
        <ele>38.59</ele>
        <time>2011-02-06T07:29:37Z</time>
      </trkpt>
      <trkpt lat="48.99535" lon="1.08588">
        <ele>37.15</ele>
        <time>2011-02-06T07:29:42Z</time>
      </trkpt>
      <trkpt lat="48.99528" lon="1.08536">
        <ele>38.59</ele>
        <time>2011-02-06T07:29:56Z</time>
      </trkpt>
      <trkpt lat="48.99527" lon="1.08529">
        <ele>35.23</ele>
        <time>2011-02-06T07:29:58Z</time>
      </trkpt>
      <trkpt lat="48.99526" lon="1.08525">
        <ele>35.71</ele>
        <time>2011-02-06T07:29:59Z</time>
      </trkpt>
      <trkpt lat="48.99526" lon="1.08518">
        <ele>37.63</ele>
        <time>2011-02-06T07:30:01Z</time>
      </trkpt>
      <trkpt lat="48.99521" lon="1.08466">
        <ele>37.63</ele>
        <time>2011-02-06T07:30:15Z</time>
      </trkpt>
      <trkpt lat="48.99516" lon="1.08437">
        <ele>34.26</ele>
        <time>2011-02-06T07:30:23Z</time>
      </trkpt>
      <trkpt lat="48.99515" lon="1.08434">
        <ele>37.63</ele>
        <time>2011-02-06T07:30:24Z</time>
      </trkpt>
      <trkpt lat="48.99513" lon="1.0842">
        <ele>37.63</ele>
        <time>2011-02-06T07:30:28Z</time>
      </trkpt>
      <trkpt lat="48.99511" lon="1.08404">
        <ele>39.55</ele>
        <time>2011-02-06T07:30:32Z</time>
      </trkpt>
      <trkpt lat="48.9951" lon="1.08381">
        <ele>40.51</ele>
        <time>2011-02-06T07:30:38Z</time>
      </trkpt>
      <trkpt lat="48.9951" lon="1.08377">
        <ele>39.55</ele>
        <time>2011-02-06T07:30:39Z</time>
      </trkpt>
      <trkpt lat="48.99503" lon="1.08349">
        <ele>36.19</ele>
        <time>2011-02-06T07:30:47Z</time>
      </trkpt>
      <trkpt lat="48.99503" lon="1.08345">
        <ele>40.03</ele>
        <time>2011-02-06T07:30:48Z</time>
      </trkpt>
      <trkpt lat="48.99498" lon="1.08322">
        <ele>36.67</ele>
        <time>2011-02-06T07:30:55Z</time>
      </trkpt>
      <trkpt lat="48.99496" lon="1.08315">
        <ele>39.07</ele>
        <time>2011-02-06T07:30:57Z</time>
      </trkpt>
      <trkpt lat="48.99492" lon="1.08299">
        <ele>38.59</ele>
        <time>2011-02-06T07:31:02Z</time>
      </trkpt>
      <trkpt lat="48.99488" lon="1.08285">
        <ele>40.03</ele>
        <time>2011-02-06T07:31:06Z</time>
      </trkpt>
      <trkpt lat="48.99483" lon="1.08264">
        <ele>39.07</ele>
        <time>2011-02-06T07:31:12Z</time>
      </trkpt>
      <trkpt lat="48.99477" lon="1.08242">
        <ele>35.71</ele>
        <time>2011-02-06T07:31:18Z</time>
      </trkpt>
      <trkpt lat="48.99476" lon="1.08239">
        <ele>36.19</ele>
        <time>2011-02-06T07:31:19Z</time>
      </trkpt>
      <trkpt lat="48.99475" lon="1.08232">
        <ele>39.07</ele>
        <time>2011-02-06T07:31:21Z</time>
      </trkpt>
      <trkpt lat="48.99474" lon="1.08229">
        <ele>38.11</ele>
        <time>2011-02-06T07:31:22Z</time>
      </trkpt>
      <trkpt lat="48.99467" lon="1.08183">
        <ele>40.03</ele>
        <time>2011-02-06T07:31:35Z</time>
      </trkpt>
      <trkpt lat="48.99461" lon="1.08153">
        <ele>36.67</ele>
        <time>2011-02-06T07:31:43Z</time>
      </trkpt>
      <trkpt lat="48.99459" lon="1.08142">
        <ele>40.03</ele>
        <time>2011-02-06T07:31:46Z</time>
      </trkpt>
      <trkpt lat="48.99453" lon="1.08093">
        <ele>38.59</ele>
        <time>2011-02-06T07:32:00Z</time>
      </trkpt>
      <trkpt lat="48.99451" lon="1.0805">
        <ele>40.03</ele>
        <time>2011-02-06T07:32:12Z</time>
      </trkpt>
      <trkpt lat="48.99451" lon="1.08047">
        <ele>36.19</ele>
        <time>2011-02-06T07:32:13Z</time>
      </trkpt>
      <trkpt lat="48.99451" lon="1.08044">
        <ele>41.47</ele>
        <time>2011-02-06T07:32:14Z</time>
      </trkpt>
      <trkpt lat="48.99451" lon="1.08041">
        <ele>41.47</ele>
        <time>2011-02-06T07:32:15Z</time>
      </trkpt>
      <trkpt lat="48.99452" lon="1.08035">
        <ele>37.15</ele>
        <time>2011-02-06T07:32:17Z</time>
      </trkpt>
      <trkpt lat="48.99453" lon="1.08026">
        <ele>41.95</ele>
        <time>2011-02-06T07:32:20Z</time>
      </trkpt>
      <trkpt lat="48.99453" lon="1.08019">
        <ele>38.59</ele>
        <time>2011-02-06T07:32:22Z</time>
      </trkpt>
      <trkpt lat="48.99453" lon="1.07988">
        <ele>42.44</ele>
        <time>2011-02-06T07:32:30Z</time>
      </trkpt>
      <trkpt lat="48.99452" lon="1.07973">
        <ele>36.67</ele>
        <time>2011-02-06T07:32:34Z</time>
      </trkpt>
      <trkpt lat="48.99451" lon="1.07969">
        <ele>40.99</ele>
        <time>2011-02-06T07:32:35Z</time>
      </trkpt>
      <trkpt lat="48.9945" lon="1.07946">
        <ele>41.47</ele>
        <time>2011-02-06T07:32:41Z</time>
      </trkpt>
      <trkpt lat="48.99452" lon="1.07905">
        <ele>44.84</ele>
        <time>2011-02-06T07:32:52Z</time>
      </trkpt>
      <trkpt lat="48.99452" lon="1.07902">
        <ele>37.63</ele>
        <time>2011-02-06T07:32:53Z</time>
      </trkpt>
      <trkpt lat="48.99451" lon="1.07899">
        <ele>42.44</ele>
        <time>2011-02-06T07:32:54Z</time>
      </trkpt>
      <trkpt lat="48.9945" lon="1.07891">
        <ele>37.63</ele>
        <time>2011-02-06T07:32:57Z</time>
      </trkpt>
      <trkpt lat="48.99451" lon="1.07881">
        <ele>41.95</ele>
        <time>2011-02-06T07:33:00Z</time>
      </trkpt>
      <trkpt lat="48.99451" lon="1.07877">
        <ele>38.11</ele>
        <time>2011-02-06T07:33:01Z</time>
      </trkpt>
      <trkpt lat="48.99452" lon="1.07867">
        <ele>41.95</ele>
        <time>2011-02-06T07:33:04Z</time>
      </trkpt>
      <trkpt lat="48.99452" lon="1.07864">
        <ele>40.99</ele>
        <time>2011-02-06T07:33:05Z</time>
      </trkpt>
      <trkpt lat="48.99453" lon="1.07849">
        <ele>40.51</ele>
        <time>2011-02-06T07:33:09Z</time>
      </trkpt>
      <trkpt lat="48.99455" lon="1.07805">
        <ele>40.03</ele>
        <time>2011-02-06T07:33:20Z</time>
      </trkpt>
      <trkpt lat="48.99455" lon="1.07759">
        <ele>42.44</ele>
        <time>2011-02-06T07:33:32Z</time>
      </trkpt>
      <trkpt lat="48.99455" lon="1.07755">
        <ele>39.55</ele>
        <time>2011-02-06T07:33:33Z</time>
      </trkpt>
      <trkpt lat="48.99454" lon="1.07751">
        <ele>40.99</ele>
        <time>2011-02-06T07:33:34Z</time>
      </trkpt>
      <trkpt lat="48.99454" lon="1.07744">
        <ele>41.95</ele>
        <time>2011-02-06T07:33:36Z</time>
      </trkpt>
      <trkpt lat="48.99456" lon="1.07726">
        <ele>45.8</ele>
        <time>2011-02-06T07:33:42Z</time>
      </trkpt>
      <trkpt lat="48.99457" lon="1.07724">
        <ele>41.95</ele>
        <time>2011-02-06T07:33:43Z</time>
      </trkpt>
      <trkpt lat="48.99459" lon="1.07722">
        <ele>41.95</ele>
        <time>2011-02-06T07:33:44Z</time>
      </trkpt>
      <trkpt lat="48.99487" lon="1.07701">
        <ele>40.99</ele>
        <time>2011-02-06T07:33:57Z</time>
      </trkpt>
      <trkpt lat="48.99491" lon="1.07698">
        <ele>39.55</ele>
        <time>2011-02-06T07:33:59Z</time>
      </trkpt>
      <trkpt lat="48.99495" lon="1.07695">
        <ele>41.47</ele>
        <time>2011-02-06T07:34:01Z</time>
      </trkpt>
      <trkpt lat="48.99509" lon="1.07683">
        <ele>45.8</ele>
        <time>2011-02-06T07:34:09Z</time>
      </trkpt>
      <trkpt lat="48.9951" lon="1.07681">
        <ele>42.92</ele>
        <time>2011-02-06T07:34:10Z</time>
      </trkpt>
      <trkpt lat="48.99525" lon="1.07669">
        <ele>41.47</ele>
        <time>2011-02-06T07:34:18Z</time>
      </trkpt>
      <trkpt lat="48.99548" lon="1.07657">
        <ele>43.4</ele>
        <time>2011-02-06T07:34:27Z</time>
      </trkpt>
      <trkpt lat="48.99555" lon="1.07654">
        <ele>40.99</ele>
        <time>2011-02-06T07:34:30Z</time>
      </trkpt>
      <trkpt lat="48.99578" lon="1.07629">
        <ele>42.44</ele>
        <time>2011-02-06T07:34:42Z</time>
      </trkpt>
      <trkpt lat="48.99581" lon="1.07622">
        <ele>41.95</ele>
        <time>2011-02-06T07:34:44Z</time>
      </trkpt>
      <trkpt lat="48.99583" lon="1.07607">
        <ele>40.51</ele>
        <time>2011-02-06T07:34:48Z</time>
      </trkpt>
      <trkpt lat="48.99584" lon="1.07599">
        <ele>41.95</ele>
        <time>2011-02-06T07:34:50Z</time>
      </trkpt>
      <trkpt lat="48.99586" lon="1.07588">
        <ele>40.51</ele>
        <time>2011-02-06T07:34:53Z</time>
      </trkpt>
      <trkpt lat="48.99586" lon="1.07581">
        <ele>44.36</ele>
        <time>2011-02-06T07:34:55Z</time>
      </trkpt>
      <trkpt lat="48.99586" lon="1.07577">
        <ele>43.4</ele>
        <time>2011-02-06T07:34:56Z</time>
      </trkpt>
      <trkpt lat="48.99587" lon="1.0756">
        <ele>39.55</ele>
        <time>2011-02-06T07:35:01Z</time>
      </trkpt>
      <trkpt lat="48.99588" lon="1.07557">
        <ele>42.92</ele>
        <time>2011-02-06T07:35:02Z</time>
      </trkpt>
      <trkpt lat="48.99589" lon="1.0755">
        <ele>46.76</ele>
        <time>2011-02-06T07:35:04Z</time>
      </trkpt>
      <trkpt lat="48.99591" lon="1.07547">
        <ele>41.95</ele>
        <time>2011-02-06T07:35:05Z</time>
      </trkpt>
      <trkpt lat="48.99594" lon="1.07541">
        <ele>40.03</ele>
        <time>2011-02-06T07:35:07Z</time>
      </trkpt>
      <trkpt lat="48.99603" lon="1.07534">
        <ele>42.92</ele>
        <time>2011-02-06T07:35:11Z</time>
      </trkpt>
      <trkpt lat="48.99607" lon="1.07531">
        <ele>43.88</ele>
        <time>2011-02-06T07:35:13Z</time>
      </trkpt>
      <trkpt lat="48.99636" lon="1.07518">
        <ele>42.44</ele>
        <time>2011-02-06T07:35:26Z</time>
      </trkpt>
      <trkpt lat="48.9965" lon="1.0751">
        <ele>46.28</ele>
        <time>2011-02-06T07:35:32Z</time>
      </trkpt>
      <trkpt lat="48.99653" lon="1.07509">
        <ele>41.95</ele>
        <time>2011-02-06T07:35:33Z</time>
      </trkpt>
      <trkpt lat="48.99659" lon="1.07504">
        <ele>45.8</ele>
        <time>2011-02-06T07:35:36Z</time>
      </trkpt>
      <trkpt lat="48.99678" lon="1.07487">
        <ele>46.76</ele>
        <time>2011-02-06T07:35:46Z</time>
      </trkpt>
      <trkpt lat="48.99683" lon="1.07481">
        <ele>43.88</ele>
        <time>2011-02-06T07:35:49Z</time>
      </trkpt>
      <trkpt lat="48.99685" lon="1.07479">
        <ele>49.16</ele>
        <time>2011-02-06T07:35:50Z</time>
      </trkpt>
      <trkpt lat="48.99691" lon="1.07474">
        <ele>42.92</ele>
        <time>2011-02-06T07:35:53Z</time>
      </trkpt>
      <trkpt lat="48.99693" lon="1.07472">
        <ele>45.8</ele>
        <time>2011-02-06T07:35:54Z</time>
      </trkpt>
      <trkpt lat="48.997" lon="1.07462">
        <ele>48.2</ele>
        <time>2011-02-06T07:35:58Z</time>
      </trkpt>
      <trkpt lat="48.99704" lon="1.07457">
        <ele>41.47</ele>
        <time>2011-02-06T07:36:00Z</time>
      </trkpt>
      <trkpt lat="48.99706" lon="1.07455">
        <ele>47.72</ele>
        <time>2011-02-06T07:36:01Z</time>
      </trkpt>
      <trkpt lat="48.99708" lon="1.07453">
        <ele>44.36</ele>
        <time>2011-02-06T07:36:02Z</time>
      </trkpt>
      <trkpt lat="48.9971" lon="1.07451">
        <ele>48.2</ele>
        <time>2011-02-06T07:36:03Z</time>
      </trkpt>
      <trkpt lat="48.99712" lon="1.07449">
        <ele>44.84</ele>
        <time>2011-02-06T07:36:04Z</time>
      </trkpt>
      <trkpt lat="48.9972" lon="1.07443">
        <ele>43.4</ele>
        <time>2011-02-06T07:36:08Z</time>
      </trkpt>
      <trkpt lat="48.99722" lon="1.07441">
        <ele>45.32</ele>
        <time>2011-02-06T07:36:09Z</time>
      </trkpt>
      <trkpt lat="48.99736" lon="1.07435">
        <ele>46.76</ele>
        <time>2011-02-06T07:36:15Z</time>
      </trkpt>
      <trkpt lat="48.9974" lon="1.07432">
        <ele>44.36</ele>
        <time>2011-02-06T07:36:17Z</time>
      </trkpt>
      <trkpt lat="48.99745" lon="1.07427">
        <ele>46.28</ele>
        <time>2011-02-06T07:36:20Z</time>
      </trkpt>
      <trkpt lat="48.9975" lon="1.0742">
        <ele>44.36</ele>
        <time>2011-02-06T07:36:25Z</time>
      </trkpt>
      <trkpt lat="48.99751" lon="1.07418">
        <ele>44.84</ele>
        <time>2011-02-06T07:36:26Z</time>
      </trkpt>
      <trkpt lat="48.99752" lon="1.07417">
        <ele>48.68</ele>
        <time>2011-02-06T07:36:27Z</time>
      </trkpt>
      <trkpt lat="48.99754" lon="1.07415">
        <ele>47.72</ele>
        <time>2011-02-06T07:36:28Z</time>
      </trkpt>
      <trkpt lat="48.99758" lon="1.07412">
        <ele>43.4</ele>
        <time>2011-02-06T07:36:30Z</time>
      </trkpt>
      <trkpt lat="48.99761" lon="1.07411">
        <ele>45.8</ele>
        <time>2011-02-06T07:36:31Z</time>
      </trkpt>
      <trkpt lat="48.99766" lon="1.07408">
        <ele>44.84</ele>
        <time>2011-02-06T07:36:33Z</time>
      </trkpt>
      <trkpt lat="48.99778" lon="1.07399">
        <ele>48.68</ele>
        <time>2011-02-06T07:36:37Z</time>
      </trkpt>
      <trkpt lat="48.99781" lon="1.07396">
        <ele>44.84</ele>
        <time>2011-02-06T07:36:39Z</time>
      </trkpt>
      <trkpt lat="48.99783" lon="1.07394">
        <ele>45.8</ele>
        <time>2011-02-06T07:36:40Z</time>
      </trkpt>
      <trkpt lat="48.99785" lon="1.07392">
        <ele>47.72</ele>
        <time>2011-02-06T07:36:41Z</time>
      </trkpt>
      <trkpt lat="48.99792" lon="1.07386">
        <ele>46.28</ele>
        <time>2011-02-06T07:36:44Z</time>
      </trkpt>
      <trkpt lat="48.99793" lon="1.07384">
        <ele>50.13</ele>
        <time>2011-02-06T07:36:45Z</time>
      </trkpt>
      <trkpt lat="48.99795" lon="1.07382">
        <ele>44.84</ele>
        <time>2011-02-06T07:36:46Z</time>
      </trkpt>
      <trkpt lat="48.99797" lon="1.07382">
        <ele>49.16</ele>
        <time>2011-02-06T07:36:47Z</time>
      </trkpt>
      <trkpt lat="48.99808" lon="1.07378">
        <ele>47.72</ele>
        <time>2011-02-06T07:36:51Z</time>
      </trkpt>
      <trkpt lat="48.99831" lon="1.07372">
        <ele>48.2</ele>
        <time>2011-02-06T07:36:59Z</time>
      </trkpt>
      <trkpt lat="48.99851" lon="1.07384">
        <ele>51.09</ele>
        <time>2011-02-06T07:37:09Z</time>
      </trkpt>
      <trkpt lat="48.99858" lon="1.07392">
        <ele>50.13</ele>
        <time>2011-02-06T07:37:13Z</time>
      </trkpt>
      <trkpt lat="48.9986" lon="1.07393">
        <ele>50.13</ele>
        <time>2011-02-06T07:37:14Z</time>
      </trkpt>
      <trkpt lat="48.99871" lon="1.074">
        <ele>53.49</ele>
        <time>2011-02-06T07:37:20Z</time>
      </trkpt>
      <trkpt lat="48.99888" lon="1.07409">
        <ele>53.97</ele>
        <time>2011-02-06T07:37:29Z</time>
      </trkpt>
      <trkpt lat="48.99909" lon="1.07423">
        <ele>53.49</ele>
        <time>2011-02-06T07:37:42Z</time>
      </trkpt>
      <trkpt lat="48.99917" lon="1.07425">
        <ele>53.97</ele>
        <time>2011-02-06T07:37:46Z</time>
      </trkpt>
      <trkpt lat="48.99928" lon="1.07428">
        <ele>57.34</ele>
        <time>2011-02-06T07:37:53Z</time>
      </trkpt>
      <trkpt lat="48.99931" lon="1.07427">
        <ele>61.18</ele>
        <time>2011-02-06T07:37:55Z</time>
      </trkpt>
      <trkpt lat="48.99932" lon="1.07427">
        <ele>56.37</ele>
        <time>2011-02-06T07:37:56Z</time>
      </trkpt>
      <trkpt lat="48.99941" lon="1.07427">
        <ele>54.45</ele>
        <time>2011-02-06T07:38:00Z</time>
      </trkpt>
      <trkpt lat="48.99943" lon="1.07427">
        <ele>58.3</ele>
        <time>2011-02-06T07:38:01Z</time>
      </trkpt>
      <trkpt lat="48.99949" lon="1.07427">
        <ele>54.93</ele>
        <time>2011-02-06T07:38:04Z</time>
      </trkpt>
      <trkpt lat="48.99954" lon="1.07426">
        <ele>58.3</ele>
        <time>2011-02-06T07:38:07Z</time>
      </trkpt>
      <trkpt lat="48.99957" lon="1.07425">
        <ele>57.82</ele>
        <time>2011-02-06T07:38:09Z</time>
      </trkpt>
      <trkpt lat="48.99961" lon="1.07425">
        <ele>59.74</ele>
        <time>2011-02-06T07:38:11Z</time>
      </trkpt>
      <trkpt lat="48.99964" lon="1.07424">
        <ele>58.3</ele>
        <time>2011-02-06T07:38:12Z</time>
      </trkpt>
      <trkpt lat="48.99968" lon="1.07422">
        <ele>60.22</ele>
        <time>2011-02-06T07:38:14Z</time>
      </trkpt>
      <trkpt lat="48.99993" lon="1.07427">
        <ele>61.66</ele>
        <time>2011-02-06T07:38:26Z</time>
      </trkpt>
      <trkpt lat="49.00024" lon="1.07432">
        <ele>63.58</ele>
        <time>2011-02-06T07:38:44Z</time>
      </trkpt>
      <trkpt lat="49.0003" lon="1.07428">
        <ele>65.51</ele>
        <time>2011-02-06T07:38:47Z</time>
      </trkpt>
      <trkpt lat="49.00035" lon="1.07421">
        <ele>64.07</ele>
        <time>2011-02-06T07:38:50Z</time>
      </trkpt>
      <trkpt lat="49.00037" lon="1.07413">
        <ele>65.03</ele>
        <time>2011-02-06T07:38:53Z</time>
      </trkpt>
      <trkpt lat="49.00038" lon="1.07397">
        <ele>65.51</ele>
        <time>2011-02-06T07:38:58Z</time>
      </trkpt>
      <trkpt lat="49.00037" lon="1.07386">
        <ele>65.99</ele>
        <time>2011-02-06T07:39:02Z</time>
      </trkpt>
      <trkpt lat="49.00028" lon="1.07364">
        <ele>69.35</ele>
        <time>2011-02-06T07:39:11Z</time>
      </trkpt>
      <trkpt lat="49.00027" lon="1.07361">
        <ele>65.99</ele>
        <time>2011-02-06T07:39:12Z</time>
      </trkpt>
      <trkpt lat="49.00021" lon="1.07349">
        <ele>70.31</ele>
        <time>2011-02-06T07:39:17Z</time>
      </trkpt>
      <trkpt lat="49.0002" lon="1.07347">
        <ele>69.35</ele>
        <time>2011-02-06T07:39:18Z</time>
      </trkpt>
      <trkpt lat="49.00012" lon="1.07337">
        <ele>72.72</ele>
        <time>2011-02-06T07:39:26Z</time>
      </trkpt>
      <trkpt lat="49.00011" lon="1.07335">
        <ele>72.24</ele>
        <time>2011-02-06T07:39:27Z</time>
      </trkpt>
      <trkpt lat="49.00008" lon="1.07325">
        <ele>72.24</ele>
        <time>2011-02-06T07:39:31Z</time>
      </trkpt>
      <trkpt lat="49.00007" lon="1.07311">
        <ele>72.72</ele>
        <time>2011-02-06T07:39:35Z</time>
      </trkpt>
      <trkpt lat="49.00005" lon="1.07294">
        <ele>71.27</ele>
        <time>2011-02-06T07:39:40Z</time>
      </trkpt>
      <trkpt lat="49.00005" lon="1.07288">
        <ele>74.16</ele>
        <time>2011-02-06T07:39:42Z</time>
      </trkpt>
      <trkpt lat="49.00006" lon="1.0728">
        <ele>73.68</ele>
        <time>2011-02-06T07:39:45Z</time>
      </trkpt>
      <trkpt lat="49.00006" lon="1.07269">
        <ele>75.12</ele>
        <time>2011-02-06T07:39:49Z</time>
      </trkpt>
      <trkpt lat="49.00009" lon="1.07262">
        <ele>77.04</ele>
        <time>2011-02-06T07:39:53Z</time>
      </trkpt>
      <trkpt lat="49.00011" lon="1.07257">
        <ele>75.6</ele>
        <time>2011-02-06T07:39:55Z</time>
      </trkpt>
      <trkpt lat="49.00015" lon="1.07245">
        <ele>75.12</ele>
        <time>2011-02-06T07:40:01Z</time>
      </trkpt>
      <trkpt lat="49.00017" lon="1.07242">
        <ele>77.52</ele>
        <time>2011-02-06T07:40:03Z</time>
      </trkpt>
      <trkpt lat="49.00018" lon="1.0724">
        <ele>76.08</ele>
        <time>2011-02-06T07:40:04Z</time>
      </trkpt>
      <trkpt lat="49.0002" lon="1.0723">
        <ele>79.93</ele>
        <time>2011-02-06T07:40:08Z</time>
      </trkpt>
      <trkpt lat="49.00031" lon="1.07212">
        <ele>81.85</ele>
        <time>2011-02-06T07:40:18Z</time>
      </trkpt>
      <trkpt lat="49.00043" lon="1.07199">
        <ele>85.21</ele>
        <time>2011-02-06T07:40:28Z</time>
      </trkpt>
      <trkpt lat="49.00045" lon="1.07198">
        <ele>86.66</ele>
        <time>2011-02-06T07:40:30Z</time>
      </trkpt>
      <trkpt lat="49.00057" lon="1.07188">
        <ele>85.69</ele>
        <time>2011-02-06T07:40:38Z</time>
      </trkpt>
      <trkpt lat="49.0006" lon="1.07181">
        <ele>84.73</ele>
        <time>2011-02-06T07:40:41Z</time>
      </trkpt>
      <trkpt lat="49.00062" lon="1.07176">
        <ele>88.58</ele>
        <time>2011-02-06T07:40:43Z</time>
      </trkpt>
      <trkpt lat="49.00066" lon="1.07156">
        <ele>89.54</ele>
        <time>2011-02-06T07:40:50Z</time>
      </trkpt>
      <trkpt lat="49.00066" lon="1.07139">
        <ele>92.42</ele>
        <time>2011-02-06T07:40:56Z</time>
      </trkpt>
      <trkpt lat="49.00066" lon="1.07136">
        <ele>90.5</ele>
        <time>2011-02-06T07:40:57Z</time>
      </trkpt>
      <trkpt lat="49.00066" lon="1.07121">
        <ele>91.94</ele>
        <time>2011-02-06T07:41:02Z</time>
      </trkpt>
      <trkpt lat="49.00067" lon="1.07106">
        <ele>93.39</ele>
        <time>2011-02-06T07:41:06Z</time>
      </trkpt>
      <trkpt lat="49.0007" lon="1.07077">
        <ele>94.35</ele>
        <time>2011-02-06T07:41:15Z</time>
      </trkpt>
      <trkpt lat="49.00076" lon="1.07058">
        <ele>95.31</ele>
        <time>2011-02-06T07:41:23Z</time>
      </trkpt>
      <trkpt lat="49.00078" lon="1.07049">
        <ele>96.75</ele>
        <time>2011-02-06T07:41:26Z</time>
      </trkpt>
      <trkpt lat="49.00082" lon="1.07037">
        <ele>96.75</ele>
        <time>2011-02-06T07:41:30Z</time>
      </trkpt>
      <trkpt lat="49.00086" lon="1.07029">
        <ele>96.27</ele>
        <time>2011-02-06T07:41:34Z</time>
      </trkpt>
      <trkpt lat="49.00094" lon="1.07014">
        <ele>99.15</ele>
        <time>2011-02-06T07:41:41Z</time>
      </trkpt>
      <trkpt lat="49.00111" lon="1.07">
        <ele>99.63</ele>
        <time>2011-02-06T07:41:49Z</time>
      </trkpt>
      <trkpt lat="49.00126" lon="1.06995">
        <ele>100.11</ele>
        <time>2011-02-06T07:41:55Z</time>
      </trkpt>
      <trkpt lat="49.00153" lon="1.06989">
        <ele>102.04</ele>
        <time>2011-02-06T07:42:06Z</time>
      </trkpt>
      <trkpt lat="49.00169" lon="1.06981">
        <ele>99.63</ele>
        <time>2011-02-06T07:42:13Z</time>
      </trkpt>
      <trkpt lat="49.00171" lon="1.06979">
        <ele>103</ele>
        <time>2011-02-06T07:42:14Z</time>
      </trkpt>
      <trkpt lat="49.00173" lon="1.06978">
        <ele>102.04</ele>
        <time>2011-02-06T07:42:15Z</time>
      </trkpt>
      <trkpt lat="49.00191" lon="1.0697">
        <ele>103.48</ele>
        <time>2011-02-06T07:42:22Z</time>
      </trkpt>
      <trkpt lat="49.0021" lon="1.06962">
        <ele>100.11</ele>
        <time>2011-02-06T07:42:31Z</time>
      </trkpt>
      <trkpt lat="49.00216" lon="1.06959">
        <ele>103.48</ele>
        <time>2011-02-06T07:42:34Z</time>
      </trkpt>
      <trkpt lat="49.00239" lon="1.06951">
        <ele>103</ele>
        <time>2011-02-06T07:42:44Z</time>
      </trkpt>
      <trkpt lat="49.00269" lon="1.06938">
        <ele>103.96</ele>
        <time>2011-02-06T07:42:58Z</time>
      </trkpt>
      <trkpt lat="49.00299" lon="1.06915">
        <ele>104.44</ele>
        <time>2011-02-06T07:43:12Z</time>
      </trkpt>
      <trkpt lat="49.0032" lon="1.06884">
        <ele>103.48</ele>
        <time>2011-02-06T07:43:23Z</time>
      </trkpt>
      <trkpt lat="49.00334" lon="1.06857">
        <ele>106.36</ele>
        <time>2011-02-06T07:43:32Z</time>
      </trkpt>
      <trkpt lat="49.00356" lon="1.06819">
        <ele>103.96</ele>
        <time>2011-02-06T07:43:46Z</time>
      </trkpt>
      <trkpt lat="49.00357" lon="1.06816">
        <ele>103.96</ele>
        <time>2011-02-06T07:43:47Z</time>
      </trkpt>
      <trkpt lat="49.00379" lon="1.06787">
        <ele>104.44</ele>
        <time>2011-02-06T07:44:00Z</time>
      </trkpt>
      <trkpt lat="49.00409" lon="1.06763">
        <ele>105.88</ele>
        <time>2011-02-06T07:44:15Z</time>
      </trkpt>
      <trkpt lat="49.00415" lon="1.06754">
        <ele>103.96</ele>
        <time>2011-02-06T07:44:20Z</time>
      </trkpt>
      <trkpt lat="49.00437" lon="1.06728">
        <ele>103.48</ele>
        <time>2011-02-06T07:44:33Z</time>
      </trkpt>
      <trkpt lat="49.00457" lon="1.0672">
        <ele>100.6</ele>
        <time>2011-02-06T07:44:40Z</time>
      </trkpt>
      <trkpt lat="49.00466" lon="1.06717">
        <ele>102.52</ele>
        <time>2011-02-06T07:44:43Z</time>
      </trkpt>
      <trkpt lat="49.005" lon="1.06701">
        <ele>100.6</ele>
        <time>2011-02-06T07:44:55Z</time>
      </trkpt>
      <trkpt lat="49.00533" lon="1.06686">
        <ele>98.67</ele>
        <time>2011-02-06T07:45:08Z</time>
      </trkpt>
      <trkpt lat="49.00545" lon="1.06683">
        <ele>98.67</ele>
        <time>2011-02-06T07:45:13Z</time>
      </trkpt>
      <trkpt lat="49.00572" lon="1.06674">
        <ele>99.63</ele>
        <time>2011-02-06T07:45:24Z</time>
      </trkpt>
      <trkpt lat="49.00597" lon="1.06662">
        <ele>101.56</ele>
        <time>2011-02-06T07:45:35Z</time>
      </trkpt>
      <trkpt lat="49.00621" lon="1.06653">
        <ele>97.71</ele>
        <time>2011-02-06T07:45:43Z</time>
      </trkpt>
      <trkpt lat="49.00624" lon="1.06652">
        <ele>102.52</ele>
        <time>2011-02-06T07:45:44Z</time>
      </trkpt>
      <trkpt lat="49.00629" lon="1.0665">
        <ele>98.67</ele>
        <time>2011-02-06T07:45:46Z</time>
      </trkpt>
      <trkpt lat="49.00634" lon="1.06649">
        <ele>102.52</ele>
        <time>2011-02-06T07:45:48Z</time>
      </trkpt>
      <trkpt lat="49.00637" lon="1.06648">
        <ele>102.04</ele>
        <time>2011-02-06T07:45:49Z</time>
      </trkpt>
      <trkpt lat="49.0065" lon="1.06644">
        <ele>102.04</ele>
        <time>2011-02-06T07:45:54Z</time>
      </trkpt>
      <trkpt lat="49.00677" lon="1.06638">
        <ele>99.63</ele>
        <time>2011-02-06T07:46:06Z</time>
      </trkpt>
      <trkpt lat="49.00685" lon="1.06634">
        <ele>101.08</ele>
        <time>2011-02-06T07:46:09Z</time>
      </trkpt>
      <trkpt lat="49.00699" lon="1.06614">
        <ele>103.48</ele>
        <time>2011-02-06T07:46:17Z</time>
      </trkpt>
      <trkpt lat="49.00722" lon="1.06578">
        <ele>103.96</ele>
        <time>2011-02-06T07:46:31Z</time>
      </trkpt>
      <trkpt lat="49.00733" lon="1.06567">
        <ele>103.48</ele>
        <time>2011-02-06T07:46:36Z</time>
      </trkpt>
      <trkpt lat="49.00755" lon="1.06534">
        <ele>106.84</ele>
        <time>2011-02-06T07:46:49Z</time>
      </trkpt>
      <trkpt lat="49.00779" lon="1.065">
        <ele>104.92</ele>
        <time>2011-02-06T07:47:03Z</time>
      </trkpt>
      <trkpt lat="49.00783" lon="1.06496">
        <ele>103.48</ele>
        <time>2011-02-06T07:47:05Z</time>
      </trkpt>
      <trkpt lat="49.00817" lon="1.06469">
        <ele>104.92</ele>
        <time>2011-02-06T07:47:20Z</time>
      </trkpt>
      <trkpt lat="49.00835" lon="1.0646">
        <ele>105.4</ele>
        <time>2011-02-06T07:47:28Z</time>
      </trkpt>
      <trkpt lat="49.00859" lon="1.06448">
        <ele>103.48</ele>
        <time>2011-02-06T07:47:38Z</time>
      </trkpt>
      <trkpt lat="49.00892" lon="1.06428">
        <ele>103.96</ele>
        <time>2011-02-06T07:47:51Z</time>
      </trkpt>
      <trkpt lat="49.00926" lon="1.06406">
        <ele>100.6</ele>
        <time>2011-02-06T07:48:04Z</time>
      </trkpt>
      <trkpt lat="49.00954" lon="1.06377">
        <ele>99.63</ele>
        <time>2011-02-06T07:48:16Z</time>
      </trkpt>
      <trkpt lat="49.00973" lon="1.06359">
        <ele>96.27</ele>
        <time>2011-02-06T07:48:23Z</time>
      </trkpt>
      <trkpt lat="49.00975" lon="1.06356">
        <ele>98.67</ele>
        <time>2011-02-06T07:48:24Z</time>
      </trkpt>
      <trkpt lat="49.00988" lon="1.06341">
        <ele>98.19</ele>
        <time>2011-02-06T07:48:29Z</time>
      </trkpt>
      <trkpt lat="49.01013" lon="1.06299">
        <ele>97.23</ele>
        <time>2011-02-06T07:48:40Z</time>
      </trkpt>
      <trkpt lat="49.01034" lon="1.06251">
        <ele>95.79</ele>
        <time>2011-02-06T07:48:52Z</time>
      </trkpt>
      <trkpt lat="49.01044" lon="1.06234">
        <ele>92.9</ele>
        <time>2011-02-06T07:48:57Z</time>
      </trkpt>
      <trkpt lat="49.01051" lon="1.06224">
        <ele>96.27</ele>
        <time>2011-02-06T07:49:00Z</time>
      </trkpt>
      <trkpt lat="49.01078" lon="1.0619">
        <ele>97.23</ele>
        <time>2011-02-06T07:49:13Z</time>
      </trkpt>
      <trkpt lat="49.01087" lon="1.06182">
        <ele>97.23</ele>
        <time>2011-02-06T07:49:17Z</time>
      </trkpt>
      <trkpt lat="49.01114" lon="1.06165">
        <ele>100.11</ele>
        <time>2011-02-06T07:49:29Z</time>
      </trkpt>
      <trkpt lat="49.01116" lon="1.06164">
        <ele>98.67</ele>
        <time>2011-02-06T07:49:30Z</time>
      </trkpt>
      <trkpt lat="49.01153" lon="1.06142">
        <ele>99.63</ele>
        <time>2011-02-06T07:49:46Z</time>
      </trkpt>
      <trkpt lat="49.01186" lon="1.06121">
        <ele>99.63</ele>
        <time>2011-02-06T07:50:02Z</time>
      </trkpt>
      <trkpt lat="49.01193" lon="1.06117">
        <ele>100.6</ele>
        <time>2011-02-06T07:50:05Z</time>
      </trkpt>
      <trkpt lat="49.01225" lon="1.06099">
        <ele>101.08</ele>
        <time>2011-02-06T07:50:20Z</time>
      </trkpt>
      <trkpt lat="49.01256" lon="1.06093">
        <ele>102.52</ele>
        <time>2011-02-06T07:50:33Z</time>
      </trkpt>
      <trkpt lat="49.01288" lon="1.06091">
        <ele>103.96</ele>
        <time>2011-02-06T07:50:47Z</time>
      </trkpt>
      <trkpt lat="49.01297" lon="1.06088">
        <ele>100.6</ele>
        <time>2011-02-06T07:50:51Z</time>
      </trkpt>
      <trkpt lat="49.01308" lon="1.06085">
        <ele>102.52</ele>
        <time>2011-02-06T07:50:56Z</time>
      </trkpt>
      <trkpt lat="49.01345" lon="1.06067">
        <ele>101.56</ele>
        <time>2011-02-06T07:51:11Z</time>
      </trkpt>
      <trkpt lat="49.01365" lon="1.06052">
        <ele>98.67</ele>
        <time>2011-02-06T07:51:19Z</time>
      </trkpt>
      <trkpt lat="49.01367" lon="1.06049">
        <ele>99.15</ele>
        <time>2011-02-06T07:51:20Z</time>
      </trkpt>
      <trkpt lat="49.01385" lon="1.06007">
        <ele>99.15</ele>
        <time>2011-02-06T07:51:33Z</time>
      </trkpt>
      <trkpt lat="49.01393" lon="1.05953">
        <ele>97.71</ele>
        <time>2011-02-06T07:51:47Z</time>
      </trkpt>
      <trkpt lat="49.01394" lon="1.05923">
        <ele>95.79</ele>
        <time>2011-02-06T07:51:55Z</time>
      </trkpt>
      <trkpt lat="49.01396" lon="1.05913">
        <ele>95.31</ele>
        <time>2011-02-06T07:51:58Z</time>
      </trkpt>
      <trkpt lat="49.01404" lon="1.05898">
        <ele>93.87</ele>
        <time>2011-02-06T07:52:03Z</time>
      </trkpt>
      <trkpt lat="49.01416" lon="1.05899">
        <ele>92.42</ele>
        <time>2011-02-06T07:52:07Z</time>
      </trkpt>
      <trkpt lat="49.01438" lon="1.05932">
        <ele>90.02</ele>
        <time>2011-02-06T07:52:17Z</time>
      </trkpt>
      <trkpt lat="49.01444" lon="1.05976">
        <ele>87.62</ele>
        <time>2011-02-06T07:52:26Z</time>
      </trkpt>
      <trkpt lat="49.01458" lon="1.06028">
        <ele>83.77</ele>
        <time>2011-02-06T07:52:37Z</time>
      </trkpt>
      <trkpt lat="49.01472" lon="1.06068">
        <ele>82.33</ele>
        <time>2011-02-06T07:52:46Z</time>
      </trkpt>
      <trkpt lat="49.01492" lon="1.06125">
        <ele>80.41</ele>
        <time>2011-02-06T07:52:59Z</time>
      </trkpt>
      <trkpt lat="49.01513" lon="1.06168">
        <ele>79.93</ele>
        <time>2011-02-06T07:53:11Z</time>
      </trkpt>
      <trkpt lat="49.01539" lon="1.06202">
        <ele>80.41</ele>
        <time>2011-02-06T07:53:25Z</time>
      </trkpt>
      <trkpt lat="49.0156" lon="1.06221">
        <ele>82.81</ele>
        <time>2011-02-06T07:53:38Z</time>
      </trkpt>
      <trkpt lat="49.01572" lon="1.0623">
        <ele>84.73</ele>
        <time>2011-02-06T07:53:45Z</time>
      </trkpt>
      <trkpt lat="49.01581" lon="1.06235">
        <ele>86.66</ele>
        <time>2011-02-06T07:53:50Z</time>
      </trkpt>
      <trkpt lat="49.01605" lon="1.06237">
        <ele>89.54</ele>
        <time>2011-02-06T07:54:02Z</time>
      </trkpt>
      <trkpt lat="49.0162" lon="1.06217">
        <ele>91.46</ele>
        <time>2011-02-06T07:54:15Z</time>
      </trkpt>
      <trkpt lat="49.01629" lon="1.06198">
        <ele>94.35</ele>
        <time>2011-02-06T07:54:24Z</time>
      </trkpt>
      <trkpt lat="49.01647" lon="1.06165">
        <ele>95.79</ele>
        <time>2011-02-06T07:54:39Z</time>
      </trkpt>
      <trkpt lat="49.01667" lon="1.0615">
        <ele>99.15</ele>
        <time>2011-02-06T07:54:51Z</time>
      </trkpt>
      <trkpt lat="49.01701" lon="1.06136">
        <ele>101.08</ele>
        <time>2011-02-06T07:55:07Z</time>
      </trkpt>
      <trkpt lat="49.01734" lon="1.06132">
        <ele>103</ele>
        <time>2011-02-06T07:55:22Z</time>
      </trkpt>
      <trkpt lat="49.01753" lon="1.06132">
        <ele>102.04</ele>
        <time>2011-02-06T07:55:30Z</time>
      </trkpt>
      <trkpt lat="49.01787" lon="1.06126">
        <ele>102.52</ele>
        <time>2011-02-06T07:55:45Z</time>
      </trkpt>
      <trkpt lat="49.01805" lon="1.0612">
        <ele>102.04</ele>
        <time>2011-02-06T07:55:53Z</time>
      </trkpt>
      <trkpt lat="49.01812" lon="1.06131">
        <ele>102.04</ele>
        <time>2011-02-06T07:55:59Z</time>
      </trkpt>
      <trkpt lat="49.01819" lon="1.06188">
        <ele>102.04</ele>
        <time>2011-02-06T07:56:13Z</time>
      </trkpt>
      <trkpt lat="49.01828" lon="1.06238">
        <ele>102.52</ele>
        <time>2011-02-06T07:56:26Z</time>
      </trkpt>
      <trkpt lat="49.01835" lon="1.06285">
        <ele>101.56</ele>
        <time>2011-02-06T07:56:38Z</time>
      </trkpt>
      <trkpt lat="49.01845" lon="1.06353">
        <ele>102.04</ele>
        <time>2011-02-06T07:56:55Z</time>
      </trkpt>
      <trkpt lat="49.01855" lon="1.0641">
        <ele>102.04</ele>
        <time>2011-02-06T07:57:11Z</time>
      </trkpt>
      <trkpt lat="49.01861" lon="1.06465">
        <ele>101.08</ele>
        <time>2011-02-06T07:57:25Z</time>
      </trkpt>
      <trkpt lat="49.01861" lon="1.06521">
        <ele>100.11</ele>
        <time>2011-02-06T07:57:39Z</time>
      </trkpt>
      <trkpt lat="49.01861" lon="1.06583">
        <ele>100.11</ele>
        <time>2011-02-06T07:57:54Z</time>
      </trkpt>
      <trkpt lat="49.01863" lon="1.0663">
        <ele>100.11</ele>
        <time>2011-02-06T07:58:06Z</time>
      </trkpt>
      <trkpt lat="49.01864" lon="1.06692">
        <ele>99.15</ele>
        <time>2011-02-06T07:58:21Z</time>
      </trkpt>
      <trkpt lat="49.01866" lon="1.0676">
        <ele>97.71</ele>
        <time>2011-02-06T07:58:37Z</time>
      </trkpt>
      <trkpt lat="49.01867" lon="1.06819">
        <ele>97.23</ele>
        <time>2011-02-06T07:58:51Z</time>
      </trkpt>
      <trkpt lat="49.01867" lon="1.06874">
        <ele>94.83</ele>
        <time>2011-02-06T07:59:03Z</time>
      </trkpt>
      <trkpt lat="49.01868" lon="1.06932">
        <ele>93.87</ele>
        <time>2011-02-06T07:59:16Z</time>
      </trkpt>
      <trkpt lat="49.01865" lon="1.06988">
        <ele>91.94</ele>
        <time>2011-02-06T07:59:28Z</time>
      </trkpt>
      <trkpt lat="49.01862" lon="1.0705">
        <ele>90.5</ele>
        <time>2011-02-06T07:59:42Z</time>
      </trkpt>
      <trkpt lat="49.01858" lon="1.07114">
        <ele>88.1</ele>
        <time>2011-02-06T07:59:56Z</time>
      </trkpt>
      <trkpt lat="49.01858" lon="1.07171">
        <ele>85.69</ele>
        <time>2011-02-06T08:00:08Z</time>
      </trkpt>
      <trkpt lat="49.0186" lon="1.07226">
        <ele>82.33</ele>
        <time>2011-02-06T08:00:19Z</time>
      </trkpt>
      <trkpt lat="49.01859" lon="1.07237">
        <ele>81.37</ele>
        <time>2011-02-06T08:00:21Z</time>
      </trkpt>
      <trkpt lat="49.0186" lon="1.07303">
        <ele>78.48</ele>
        <time>2011-02-06T08:00:34Z</time>
      </trkpt>
      <trkpt lat="49.01861" lon="1.07361">
        <ele>78</ele>
        <time>2011-02-06T08:00:46Z</time>
      </trkpt>
      <trkpt lat="49.01863" lon="1.07408">
        <ele>77.52</ele>
        <time>2011-02-06T08:00:57Z</time>
      </trkpt>
      <trkpt lat="49.01877" lon="1.07452">
        <ele>77.04</ele>
        <time>2011-02-06T08:01:09Z</time>
      </trkpt>
      <trkpt lat="49.01902" lon="1.07499">
        <ele>75.12</ele>
        <time>2011-02-06T08:01:23Z</time>
      </trkpt>
      <trkpt lat="49.01923" lon="1.07541">
        <ele>73.68</ele>
        <time>2011-02-06T08:01:35Z</time>
      </trkpt>
      <trkpt lat="49.01942" lon="1.07583">
        <ele>74.16</ele>
        <time>2011-02-06T08:01:48Z</time>
      </trkpt>
      <trkpt lat="49.01956" lon="1.0761">
        <ele>74.16</ele>
        <time>2011-02-06T08:01:57Z</time>
      </trkpt>
      <trkpt lat="49.01978" lon="1.0765">
        <ele>73.2</ele>
        <time>2011-02-06T08:02:11Z</time>
      </trkpt>
      <trkpt lat="49.01979" lon="1.07653">
        <ele>73.68</ele>
        <time>2011-02-06T08:02:12Z</time>
      </trkpt>
      <trkpt lat="49.01986" lon="1.07669">
        <ele>73.68</ele>
        <time>2011-02-06T08:02:17Z</time>
      </trkpt>
      <trkpt lat="49.02003" lon="1.07711">
        <ele>74.16</ele>
        <time>2011-02-06T08:02:31Z</time>
      </trkpt>
      <trkpt lat="49.02012" lon="1.07726">
        <ele>73.68</ele>
        <time>2011-02-06T08:02:37Z</time>
      </trkpt>
      <trkpt lat="49.02024" lon="1.07761">
        <ele>74.16</ele>
        <time>2011-02-06T08:02:49Z</time>
      </trkpt>
      <trkpt lat="49.02027" lon="1.07777">
        <ele>74.64</ele>
        <time>2011-02-06T08:02:54Z</time>
      </trkpt>
      <trkpt lat="49.02025" lon="1.0779">
        <ele>74.64</ele>
        <time>2011-02-06T08:02:59Z</time>
      </trkpt>
      <trkpt lat="49.0201" lon="1.07816">
        <ele>77.04</ele>
        <time>2011-02-06T08:03:11Z</time>
      </trkpt>
      <trkpt lat="49.01995" lon="1.07826">
        <ele>79.93</ele>
        <time>2011-02-06T08:03:21Z</time>
      </trkpt>
      <trkpt lat="49.0199" lon="1.07831">
        <ele>80.41</ele>
        <time>2011-02-06T08:03:25Z</time>
      </trkpt>
      <trkpt lat="49.01995" lon="1.07856">
        <ele>81.85</ele>
        <time>2011-02-06T08:03:36Z</time>
      </trkpt>
      <trkpt lat="49.01998" lon="1.07865">
        <ele>82.33</ele>
        <time>2011-02-06T08:03:39Z</time>
      </trkpt>
      <trkpt lat="49.02007" lon="1.07911">
        <ele>80.89</ele>
        <time>2011-02-06T08:03:52Z</time>
      </trkpt>
      <trkpt lat="49.02009" lon="1.07923">
        <ele>81.37</ele>
        <time>2011-02-06T08:03:55Z</time>
      </trkpt>
      <trkpt lat="49.02012" lon="1.07936">
        <ele>80.89</ele>
        <time>2011-02-06T08:03:59Z</time>
      </trkpt>
      <trkpt lat="49.02016" lon="1.07946">
        <ele>80.41</ele>
        <time>2011-02-06T08:04:03Z</time>
      </trkpt>
      <trkpt lat="49.02023" lon="1.07994">
        <ele>78.97</ele>
        <time>2011-02-06T08:04:16Z</time>
      </trkpt>
      <trkpt lat="49.02026" lon="1.0802">
        <ele>78</ele>
        <time>2011-02-06T08:04:23Z</time>
      </trkpt>
      <trkpt lat="49.02028" lon="1.08031">
        <ele>77.52</ele>
        <time>2011-02-06T08:04:26Z</time>
      </trkpt>
      <trkpt lat="49.02028" lon="1.08041">
        <ele>76.08</ele>
        <time>2011-02-06T08:04:29Z</time>
      </trkpt>
      <trkpt lat="49.02028" lon="1.08044">
        <ele>76.08</ele>
        <time>2011-02-06T08:04:30Z</time>
      </trkpt>
      <trkpt lat="49.02035" lon="1.08082">
        <ele>74.64</ele>
        <time>2011-02-06T08:04:40Z</time>
      </trkpt>
      <trkpt lat="49.02045" lon="1.0813">
        <ele>75.12</ele>
        <time>2011-02-06T08:04:53Z</time>
      </trkpt>
      <trkpt lat="49.02047" lon="1.08157">
        <ele>73.68</ele>
        <time>2011-02-06T08:05:01Z</time>
      </trkpt>
      <trkpt lat="49.0205" lon="1.08185">
        <ele>74.16</ele>
        <time>2011-02-06T08:05:08Z</time>
      </trkpt>
      <trkpt lat="49.02055" lon="1.08207">
        <ele>74.16</ele>
        <time>2011-02-06T08:05:14Z</time>
      </trkpt>
      <trkpt lat="49.02062" lon="1.08242">
        <ele>73.68</ele>
        <time>2011-02-06T08:05:23Z</time>
      </trkpt>
      <trkpt lat="49.02072" lon="1.08269">
        <ele>73.2</ele>
        <time>2011-02-06T08:05:31Z</time>
      </trkpt>
      <trkpt lat="49.02079" lon="1.08299">
        <ele>72.72</ele>
        <time>2011-02-06T08:05:39Z</time>
      </trkpt>
      <trkpt lat="49.02086" lon="1.08314">
        <ele>72.24</ele>
        <time>2011-02-06T08:05:43Z</time>
      </trkpt>
      <trkpt lat="49.021" lon="1.0836">
        <ele>71.76</ele>
        <time>2011-02-06T08:05:55Z</time>
      </trkpt>
      <trkpt lat="49.02106" lon="1.08381">
        <ele>72.24</ele>
        <time>2011-02-06T08:06:00Z</time>
      </trkpt>
      <trkpt lat="49.02125" lon="1.08422">
        <ele>71.76</ele>
        <time>2011-02-06T08:06:13Z</time>
      </trkpt>
      <trkpt lat="49.02149" lon="1.0846">
        <ele>71.76</ele>
        <time>2011-02-06T08:06:26Z</time>
      </trkpt>
      <trkpt lat="49.02157" lon="1.08471">
        <ele>71.27</ele>
        <time>2011-02-06T08:06:31Z</time>
      </trkpt>
      <trkpt lat="49.02179" lon="1.08503">
        <ele>70.79</ele>
        <time>2011-02-06T08:06:44Z</time>
      </trkpt>
      <trkpt lat="49.02194" lon="1.0852">
        <ele>70.31</ele>
        <time>2011-02-06T08:06:51Z</time>
      </trkpt>
      <trkpt lat="49.02206" lon="1.08536">
        <ele>70.79</ele>
        <time>2011-02-06T08:06:58Z</time>
      </trkpt>
      <trkpt lat="49.02228" lon="1.08557">
        <ele>69.35</ele>
        <time>2011-02-06T08:07:08Z</time>
      </trkpt>
      <trkpt lat="49.02256" lon="1.08583">
        <ele>69.35</ele>
        <time>2011-02-06T08:07:20Z</time>
      </trkpt>
      <trkpt lat="49.02276" lon="1.08619">
        <ele>68.87</ele>
        <time>2011-02-06T08:07:32Z</time>
      </trkpt>
      <trkpt lat="49.0228" lon="1.08623">
        <ele>68.39</ele>
        <time>2011-02-06T08:07:35Z</time>
      </trkpt>
      <trkpt lat="49.02286" lon="1.08635">
        <ele>67.91</ele>
        <time>2011-02-06T08:07:41Z</time>
      </trkpt>
      <trkpt lat="49.02298" lon="1.08688">
        <ele>67.43</ele>
        <time>2011-02-06T08:07:53Z</time>
      </trkpt>
      <trkpt lat="49.02304" lon="1.08747">
        <ele>67.43</ele>
        <time>2011-02-06T08:08:06Z</time>
      </trkpt>
      <trkpt lat="49.02308" lon="1.08791">
        <ele>66.95</ele>
        <time>2011-02-06T08:08:19Z</time>
      </trkpt>
      <trkpt lat="49.0231" lon="1.08835">
        <ele>66.95</ele>
        <time>2011-02-06T08:08:30Z</time>
      </trkpt>
      <trkpt lat="49.02308" lon="1.08884">
        <ele>67.43</ele>
        <time>2011-02-06T08:08:43Z</time>
      </trkpt>
      <trkpt lat="49.02304" lon="1.08924">
        <ele>66.47</ele>
        <time>2011-02-06T08:08:53Z</time>
      </trkpt>
      <trkpt lat="49.02299" lon="1.08972">
        <ele>66.47</ele>
        <time>2011-02-06T08:09:06Z</time>
      </trkpt>
      <trkpt lat="49.02298" lon="1.09014">
        <ele>67.43</ele>
        <time>2011-02-06T08:09:18Z</time>
      </trkpt>
      <trkpt lat="49.02299" lon="1.09055">
        <ele>66.95</ele>
        <time>2011-02-06T08:09:29Z</time>
      </trkpt>
      <trkpt lat="49.02305" lon="1.09096">
        <ele>66.47</ele>
        <time>2011-02-06T08:09:40Z</time>
      </trkpt>
      <trkpt lat="49.02312" lon="1.09139">
        <ele>65.99</ele>
        <time>2011-02-06T08:09:52Z</time>
      </trkpt>
      <trkpt lat="49.02316" lon="1.09188">
        <ele>66.47</ele>
        <time>2011-02-06T08:10:06Z</time>
      </trkpt>
      <trkpt lat="49.02317" lon="1.09199">
        <ele>65.51</ele>
        <time>2011-02-06T08:10:09Z</time>
      </trkpt>
      <trkpt lat="49.02309" lon="1.09215">
        <ele>66.47</ele>
        <time>2011-02-06T08:10:15Z</time>
      </trkpt>
      <trkpt lat="49.02296" lon="1.09248">
        <ele>67.43</ele>
        <time>2011-02-06T08:10:28Z</time>
      </trkpt>
      <trkpt lat="49.02284" lon="1.09272">
        <ele>69.35</ele>
        <time>2011-02-06T08:10:38Z</time>
      </trkpt>
      <trkpt lat="49.02283" lon="1.09278">
        <ele>68.87</ele>
        <time>2011-02-06T08:10:40Z</time>
      </trkpt>
      <trkpt lat="49.02275" lon="1.09294">
        <ele>69.83</ele>
        <time>2011-02-06T08:10:46Z</time>
      </trkpt>
      <trkpt lat="49.02262" lon="1.09312">
        <ele>71.27</ele>
        <time>2011-02-06T08:10:55Z</time>
      </trkpt>
      <trkpt lat="49.02257" lon="1.09359">
        <ele>72.24</ele>
        <time>2011-02-06T08:11:09Z</time>
      </trkpt>
      <trkpt lat="49.02249" lon="1.09391">
        <ele>72.72</ele>
        <time>2011-02-06T08:11:19Z</time>
      </trkpt>
      <trkpt lat="49.02248" lon="1.09406">
        <ele>73.68</ele>
        <time>2011-02-06T08:11:24Z</time>
      </trkpt>
      <trkpt lat="49.02247" lon="1.09426">
        <ele>74.64</ele>
        <time>2011-02-06T08:11:31Z</time>
      </trkpt>
      <trkpt lat="49.02246" lon="1.09447">
        <ele>75.6</ele>
        <time>2011-02-06T08:11:39Z</time>
      </trkpt>
      <trkpt lat="49.02245" lon="1.09458">
        <ele>76.08</ele>
        <time>2011-02-06T08:11:44Z</time>
      </trkpt>
      <trkpt lat="49.02237" lon="1.09476">
        <ele>76.56</ele>
        <time>2011-02-06T08:11:53Z</time>
      </trkpt>
      <trkpt lat="49.02236" lon="1.09486">
        <ele>78</ele>
        <time>2011-02-06T08:11:59Z</time>
      </trkpt>
      <trkpt lat="49.02233" lon="1.09493">
        <ele>78.48</ele>
        <time>2011-02-06T08:12:03Z</time>
      </trkpt>
      <trkpt lat="49.02229" lon="1.09497">
        <ele>80.41</ele>
        <time>2011-02-06T08:12:06Z</time>
      </trkpt>
      <trkpt lat="49.02217" lon="1.09495">
        <ele>82.81</ele>
        <time>2011-02-06T08:12:18Z</time>
      </trkpt>
      <trkpt lat="49.02207" lon="1.09489">
        <ele>86.18</ele>
        <time>2011-02-06T08:12:31Z</time>
      </trkpt>
      <trkpt lat="49.02204" lon="1.09487">
        <ele>86.66</ele>
        <time>2011-02-06T08:12:35Z</time>
      </trkpt>
      <trkpt lat="49.02199" lon="1.09484">
        <ele>86.18</ele>
        <time>2011-02-06T08:12:40Z</time>
      </trkpt>
      <trkpt lat="49.02197" lon="1.0948">
        <ele>88.1</ele>
        <time>2011-02-06T08:12:44Z</time>
      </trkpt>
      <trkpt lat="49.02195" lon="1.09472">
        <ele>91.46</ele>
        <time>2011-02-06T08:12:50Z</time>
      </trkpt>
      <trkpt lat="49.02193" lon="1.09469">
        <ele>88.1</ele>
        <time>2011-02-06T08:12:53Z</time>
      </trkpt>
      <trkpt lat="49.02192" lon="1.09465">
        <ele>90.98</ele>
        <time>2011-02-06T08:12:57Z</time>
      </trkpt>
      <trkpt lat="49.02187" lon="1.09459">
        <ele>90.98</ele>
        <time>2011-02-06T08:13:04Z</time>
      </trkpt>
      <trkpt lat="49.02184" lon="1.09457">
        <ele>91.46</ele>
        <time>2011-02-06T08:13:06Z</time>
      </trkpt>
      <trkpt lat="49.02179" lon="1.09449">
        <ele>93.87</ele>
        <time>2011-02-06T08:13:12Z</time>
      </trkpt>
      <trkpt lat="49.02178" lon="1.09447">
        <ele>95.31</ele>
        <time>2011-02-06T08:13:14Z</time>
      </trkpt>
      <trkpt lat="49.02177" lon="1.09437">
        <ele>91.94</ele>
        <time>2011-02-06T08:13:22Z</time>
      </trkpt>
      <trkpt lat="49.02177" lon="1.09436">
        <ele>96.75</ele>
        <time>2011-02-06T08:13:23Z</time>
      </trkpt>
      <trkpt lat="49.02178" lon="1.09434">
        <ele>96.75</ele>
        <time>2011-02-06T08:13:24Z</time>
      </trkpt>
      <trkpt lat="49.02178" lon="1.09433">
        <ele>93.87</ele>
        <time>2011-02-06T08:13:25Z</time>
      </trkpt>
      <trkpt lat="49.02178" lon="1.09432">
        <ele>93.87</ele>
        <time>2011-02-06T08:13:26Z</time>
      </trkpt>
      <trkpt lat="49.02177" lon="1.09429">
        <ele>96.27</ele>
        <time>2011-02-06T08:13:29Z</time>
      </trkpt>
      <trkpt lat="49.02171" lon="1.09415">
        <ele>96.27</ele>
        <time>2011-02-06T08:13:39Z</time>
      </trkpt>
      <trkpt lat="49.02167" lon="1.09411">
        <ele>98.19</ele>
        <time>2011-02-06T08:13:46Z</time>
      </trkpt>
      <trkpt lat="49.02165" lon="1.09411">
        <ele>96.27</ele>
        <time>2011-02-06T08:13:48Z</time>
      </trkpt>
      <trkpt lat="49.02163" lon="1.09409">
        <ele>98.67</ele>
        <time>2011-02-06T08:13:51Z</time>
      </trkpt>
      <trkpt lat="49.02161" lon="1.09407">
        <ele>96.75</ele>
        <time>2011-02-06T08:13:54Z</time>
      </trkpt>
      <trkpt lat="49.0216" lon="1.09404">
        <ele>101.08</ele>
        <time>2011-02-06T08:13:56Z</time>
      </trkpt>
      <trkpt lat="49.02157" lon="1.09391">
        <ele>100.6</ele>
        <time>2011-02-06T08:14:03Z</time>
      </trkpt>
      <trkpt lat="49.02155" lon="1.09381">
        <ele>98.19</ele>
        <time>2011-02-06T08:14:06Z</time>
      </trkpt>
      <trkpt lat="49.02148" lon="1.09364">
        <ele>101.08</ele>
        <time>2011-02-06T08:14:12Z</time>
      </trkpt>
      <trkpt lat="49.02145" lon="1.09353">
        <ele>104.92</ele>
        <time>2011-02-06T08:14:16Z</time>
      </trkpt>
      <trkpt lat="49.0214" lon="1.09333">
        <ele>100.6</ele>
        <time>2011-02-06T08:14:23Z</time>
      </trkpt>
      <trkpt lat="49.02139" lon="1.09326">
        <ele>100.11</ele>
        <time>2011-02-06T08:14:25Z</time>
      </trkpt>
      <trkpt lat="49.02137" lon="1.09321">
        <ele>103.48</ele>
        <time>2011-02-06T08:14:27Z</time>
      </trkpt>
      <trkpt lat="49.02132" lon="1.09296">
        <ele>103</ele>
        <time>2011-02-06T08:14:35Z</time>
      </trkpt>
      <trkpt lat="49.02129" lon="1.09285">
        <ele>104.44</ele>
        <time>2011-02-06T08:14:39Z</time>
      </trkpt>
      <trkpt lat="49.02128" lon="1.09283">
        <ele>104.92</ele>
        <time>2011-02-06T08:14:40Z</time>
      </trkpt>
      <trkpt lat="49.02128" lon="1.09278">
        <ele>101.08</ele>
        <time>2011-02-06T08:14:42Z</time>
      </trkpt>
      <trkpt lat="49.02128" lon="1.09268">
        <ele>102.52</ele>
        <time>2011-02-06T08:14:45Z</time>
      </trkpt>
      <trkpt lat="49.02127" lon="1.09262">
        <ele>101.08</ele>
        <time>2011-02-06T08:14:47Z</time>
      </trkpt>
      <trkpt lat="49.02116" lon="1.09263">
        <ele>104.92</ele>
        <time>2011-02-06T08:14:53Z</time>
      </trkpt>
      <trkpt lat="49.02111" lon="1.09264">
        <ele>102.52</ele>
        <time>2011-02-06T08:14:55Z</time>
      </trkpt>
      <trkpt lat="49.02103" lon="1.09267">
        <ele>105.4</ele>
        <time>2011-02-06T08:14:59Z</time>
      </trkpt>
      <trkpt lat="49.02092" lon="1.09271">
        <ele>109.25</ele>
        <time>2011-02-06T08:15:05Z</time>
      </trkpt>
      <trkpt lat="49.02085" lon="1.0927">
        <ele>104.92</ele>
        <time>2011-02-06T08:15:08Z</time>
      </trkpt>
      <trkpt lat="49.02083" lon="1.0927">
        <ele>107.81</ele>
        <time>2011-02-06T08:15:09Z</time>
      </trkpt>
      <trkpt lat="49.02074" lon="1.09271">
        <ele>108.77</ele>
        <time>2011-02-06T08:15:13Z</time>
      </trkpt>
      <trkpt lat="49.02073" lon="1.09272">
        <ele>108.29</ele>
        <time>2011-02-06T08:15:14Z</time>
      </trkpt>
      <trkpt lat="49.02049" lon="1.09276">
        <ele>109.73</ele>
        <time>2011-02-06T08:15:26Z</time>
      </trkpt>
      <trkpt lat="49.02039" lon="1.09289">
        <ele>110.21</ele>
        <time>2011-02-06T08:15:33Z</time>
      </trkpt>
      <trkpt lat="49.02036" lon="1.09293">
        <ele>110.21</ele>
        <time>2011-02-06T08:15:36Z</time>
      </trkpt>
      <trkpt lat="49.02034" lon="1.09292">
        <ele>108.77</ele>
        <time>2011-02-06T08:15:37Z</time>
      </trkpt>
      <trkpt lat="49.02028" lon="1.09289">
        <ele>111.17</ele>
        <time>2011-02-06T08:15:42Z</time>
      </trkpt>
      <trkpt lat="49.02026" lon="1.09282">
        <ele>108.77</ele>
        <time>2011-02-06T08:15:47Z</time>
      </trkpt>
      <trkpt lat="49.02011" lon="1.09256">
        <ele>111.17</ele>
        <time>2011-02-06T08:15:58Z</time>
      </trkpt>
      <trkpt lat="49.02007" lon="1.09244">
        <ele>110.69</ele>
        <time>2011-02-06T08:16:01Z</time>
      </trkpt>
      <trkpt lat="49.02001" lon="1.09197">
        <ele>109.25</ele>
        <time>2011-02-06T08:16:15Z</time>
      </trkpt>
      <trkpt lat="49.01992" lon="1.09156">
        <ele>108.77</ele>
        <time>2011-02-06T08:16:27Z</time>
      </trkpt>
      <trkpt lat="49.01982" lon="1.09131">
        <ele>110.21</ele>
        <time>2011-02-06T08:16:36Z</time>
      </trkpt>
      <trkpt lat="49.01944" lon="1.09131">
        <ele>110.69</ele>
        <time>2011-02-06T08:16:51Z</time>
      </trkpt>
      <trkpt lat="49.01923" lon="1.09136">
        <ele>112.13</ele>
        <time>2011-02-06T08:17:00Z</time>
      </trkpt>
      <trkpt lat="49.01897" lon="1.09127">
        <ele>112.61</ele>
        <time>2011-02-06T08:17:13Z</time>
      </trkpt>
      <trkpt lat="49.0188" lon="1.09118">
        <ele>113.57</ele>
        <time>2011-02-06T08:17:22Z</time>
      </trkpt>
      <trkpt lat="49.01873" lon="1.09116">
        <ele>113.09</ele>
        <time>2011-02-06T08:17:26Z</time>
      </trkpt>
      <trkpt lat="49.01847" lon="1.09096">
        <ele>113.57</ele>
        <time>2011-02-06T08:17:39Z</time>
      </trkpt>
      <trkpt lat="49.01821" lon="1.09068">
        <ele>113.57</ele>
        <time>2011-02-06T08:17:53Z</time>
      </trkpt>
      <trkpt lat="49.01801" lon="1.09052">
        <ele>115.5</ele>
        <time>2011-02-06T08:18:03Z</time>
      </trkpt>
      <trkpt lat="49.01789" lon="1.09042">
        <ele>113.09</ele>
        <time>2011-02-06T08:18:08Z</time>
      </trkpt>
      <trkpt lat="49.01778" lon="1.09035">
        <ele>112.61</ele>
        <time>2011-02-06T08:18:15Z</time>
      </trkpt>
      <trkpt lat="49.01759" lon="1.09019">
        <ele>115.98</ele>
        <time>2011-02-06T08:18:26Z</time>
      </trkpt>
      <trkpt lat="49.01745" lon="1.09005">
        <ele>112.61</ele>
        <time>2011-02-06T08:18:34Z</time>
      </trkpt>
      <trkpt lat="49.01735" lon="1.08993">
        <ele>112.61</ele>
        <time>2011-02-06T08:18:40Z</time>
      </trkpt>
      <trkpt lat="49.01723" lon="1.08976">
        <ele>112.61</ele>
        <time>2011-02-06T08:18:45Z</time>
      </trkpt>
      <trkpt lat="49.0172" lon="1.0897">
        <ele>114.05</ele>
        <time>2011-02-06T08:18:47Z</time>
      </trkpt>
      <trkpt lat="49.01701" lon="1.08937">
        <ele>114.05</ele>
        <time>2011-02-06T08:18:57Z</time>
      </trkpt>
      <trkpt lat="49.01676" lon="1.08923">
        <ele>112.13</ele>
        <time>2011-02-06T08:19:07Z</time>
      </trkpt>
      <trkpt lat="49.0165" lon="1.08921">
        <ele>111.65</ele>
        <time>2011-02-06T08:19:15Z</time>
      </trkpt>
      <trkpt lat="49.01645" lon="1.08919">
        <ele>113.09</ele>
        <time>2011-02-06T08:19:17Z</time>
      </trkpt>
      <trkpt lat="49.01642" lon="1.08918">
        <ele>109.73</ele>
        <time>2011-02-06T08:19:18Z</time>
      </trkpt>
      <trkpt lat="49.0164" lon="1.08918">
        <ele>114.05</ele>
        <time>2011-02-06T08:19:19Z</time>
      </trkpt>
      <trkpt lat="49.01611" lon="1.0893">
        <ele>111.17</ele>
        <time>2011-02-06T08:19:30Z</time>
      </trkpt>
      <trkpt lat="49.01612" lon="1.0895">
        <ele>110.69</ele>
        <time>2011-02-06T08:19:35Z</time>
      </trkpt>
      <trkpt lat="49.01613" lon="1.08961">
        <ele>112.61</ele>
        <time>2011-02-06T08:19:38Z</time>
      </trkpt>
      <trkpt lat="49.01614" lon="1.09023">
        <ele>113.09</ele>
        <time>2011-02-06T08:19:55Z</time>
      </trkpt>
      <trkpt lat="49.01614" lon="1.09027">
        <ele>113.09</ele>
        <time>2011-02-06T08:19:56Z</time>
      </trkpt>
      <trkpt lat="49.01614" lon="1.09076">
        <ele>113.57</ele>
        <time>2011-02-06T08:20:09Z</time>
      </trkpt>
      <trkpt lat="49.01614" lon="1.09121">
        <ele>112.61</ele>
        <time>2011-02-06T08:20:22Z</time>
      </trkpt>
      <trkpt lat="49.01615" lon="1.09128">
        <ele>114.05</ele>
        <time>2011-02-06T08:20:24Z</time>
      </trkpt>
      <trkpt lat="49.01618" lon="1.09152">
        <ele>113.09</ele>
        <time>2011-02-06T08:20:31Z</time>
      </trkpt>
      <trkpt lat="49.01619" lon="1.09194">
        <ele>115.5</ele>
        <time>2011-02-06T08:20:42Z</time>
      </trkpt>
      <trkpt lat="49.01624" lon="1.09239">
        <ele>114.53</ele>
        <time>2011-02-06T08:20:55Z</time>
      </trkpt>
      <trkpt lat="49.01625" lon="1.09255">
        <ele>112.61</ele>
        <time>2011-02-06T08:20:59Z</time>
      </trkpt>
      <trkpt lat="49.01628" lon="1.09293">
        <ele>116.94</ele>
        <time>2011-02-06T08:21:10Z</time>
      </trkpt>
      <trkpt lat="49.01619" lon="1.093">
        <ele>116.94</ele>
        <time>2011-02-06T08:21:15Z</time>
      </trkpt>
      <trkpt lat="49.01611" lon="1.093">
        <ele>114.05</ele>
        <time>2011-02-06T08:21:18Z</time>
      </trkpt>
      <trkpt lat="49.01603" lon="1.09301">
        <ele>117.42</ele>
        <time>2011-02-06T08:21:21Z</time>
      </trkpt>
      <trkpt lat="49.01596" lon="1.09301">
        <ele>115.5</ele>
        <time>2011-02-06T08:21:24Z</time>
      </trkpt>
      <trkpt lat="49.01565" lon="1.09299">
        <ele>114.53</ele>
        <time>2011-02-06T08:21:36Z</time>
      </trkpt>
      <trkpt lat="49.01563" lon="1.093">
        <ele>114.53</ele>
        <time>2011-02-06T08:21:37Z</time>
      </trkpt>
      <trkpt lat="49.01544" lon="1.09302">
        <ele>114.53</ele>
        <time>2011-02-06T08:21:45Z</time>
      </trkpt>
      <trkpt lat="49.01541" lon="1.09303">
        <ele>113.09</ele>
        <time>2011-02-06T08:21:46Z</time>
      </trkpt>
      <trkpt lat="49.01535" lon="1.09303">
        <ele>115.5</ele>
        <time>2011-02-06T08:21:49Z</time>
      </trkpt>
      <trkpt lat="49.01531" lon="1.093">
        <ele>116.46</ele>
        <time>2011-02-06T08:21:51Z</time>
      </trkpt>
      <trkpt lat="49.01506" lon="1.09264">
        <ele>113.57</ele>
        <time>2011-02-06T08:22:03Z</time>
      </trkpt>
      <trkpt lat="49.0148" lon="1.09226">
        <ele>109.25</ele>
        <time>2011-02-06T08:22:16Z</time>
      </trkpt>
      <trkpt lat="49.01478" lon="1.09224">
        <ele>111.65</ele>
        <time>2011-02-06T08:22:17Z</time>
      </trkpt>
      <trkpt lat="49.01474" lon="1.09219">
        <ele>113.09</ele>
        <time>2011-02-06T08:22:19Z</time>
      </trkpt>
      <trkpt lat="49.01467" lon="1.09212">
        <ele>111.65</ele>
        <time>2011-02-06T08:22:22Z</time>
      </trkpt>
      <trkpt lat="49.01462" lon="1.09209">
        <ele>115.01</ele>
        <time>2011-02-06T08:22:24Z</time>
      </trkpt>
      <trkpt lat="49.01448" lon="1.09216">
        <ele>112.61</ele>
        <time>2011-02-06T08:22:29Z</time>
      </trkpt>
      <trkpt lat="49.0142" lon="1.0923">
        <ele>111.17</ele>
        <time>2011-02-06T08:22:41Z</time>
      </trkpt>
      <trkpt lat="49.01411" lon="1.09222">
        <ele>110.69</ele>
        <time>2011-02-06T08:22:45Z</time>
      </trkpt>
      <trkpt lat="49.01397" lon="1.09169">
        <ele>109.25</ele>
        <time>2011-02-06T08:22:59Z</time>
      </trkpt>
      <trkpt lat="49.0137" lon="1.09145">
        <ele>107.32</ele>
        <time>2011-02-06T08:23:11Z</time>
      </trkpt>
      <trkpt lat="49.0134" lon="1.09139">
        <ele>107.81</ele>
        <time>2011-02-06T08:23:24Z</time>
      </trkpt>
      <trkpt lat="49.01305" lon="1.09132">
        <ele>106.84</ele>
        <time>2011-02-06T08:23:39Z</time>
      </trkpt>
      <trkpt lat="49.01298" lon="1.09129">
        <ele>112.13</ele>
        <time>2011-02-06T08:23:42Z</time>
      </trkpt>
      <trkpt lat="49.01294" lon="1.09127">
        <ele>108.77</ele>
        <time>2011-02-06T08:23:44Z</time>
      </trkpt>
      <trkpt lat="49.01292" lon="1.09126">
        <ele>108.77</ele>
        <time>2011-02-06T08:23:45Z</time>
      </trkpt>
      <trkpt lat="49.0128" lon="1.09124">
        <ele>111.65</ele>
        <time>2011-02-06T08:23:50Z</time>
      </trkpt>
      <trkpt lat="49.01277" lon="1.09123">
        <ele>107.32</ele>
        <time>2011-02-06T08:23:51Z</time>
      </trkpt>
      <trkpt lat="49.01275" lon="1.09123">
        <ele>111.17</ele>
        <time>2011-02-06T08:23:52Z</time>
      </trkpt>
      <trkpt lat="49.01249" lon="1.09123">
        <ele>112.13</ele>
        <time>2011-02-06T08:24:05Z</time>
      </trkpt>
      <trkpt lat="49.01218" lon="1.09125">
        <ele>112.61</ele>
        <time>2011-02-06T08:24:19Z</time>
      </trkpt>
      <trkpt lat="49.01214" lon="1.09125">
        <ele>113.57</ele>
        <time>2011-02-06T08:24:21Z</time>
      </trkpt>
      <trkpt lat="49.01186" lon="1.09134">
        <ele>114.53</ele>
        <time>2011-02-06T08:24:33Z</time>
      </trkpt>
      <trkpt lat="49.0116" lon="1.09149">
        <ele>117.42</ele>
        <time>2011-02-06T08:24:44Z</time>
      </trkpt>
      <trkpt lat="49.01131" lon="1.09166">
        <ele>115.98</ele>
        <time>2011-02-06T08:24:58Z</time>
      </trkpt>
      <trkpt lat="49.01127" lon="1.09167">
        <ele>119.34</ele>
        <time>2011-02-06T08:25:00Z</time>
      </trkpt>
      <trkpt lat="49.01125" lon="1.09167">
        <ele>118.86</ele>
        <time>2011-02-06T08:25:01Z</time>
      </trkpt>
      <trkpt lat="49.01105" lon="1.09149">
        <ele>120.78</ele>
        <time>2011-02-06T08:25:14Z</time>
      </trkpt>
      <trkpt lat="49.01099" lon="1.09139">
        <ele>120.78</ele>
        <time>2011-02-06T08:25:18Z</time>
      </trkpt>
      <trkpt lat="49.01096" lon="1.09101">
        <ele>120.3</ele>
        <time>2011-02-06T08:25:28Z</time>
      </trkpt>
      <trkpt lat="49.01105" lon="1.09039">
        <ele>118.38</ele>
        <time>2011-02-06T08:25:42Z</time>
      </trkpt>
      <trkpt lat="49.01105" lon="1.09022">
        <ele>118.38</ele>
        <time>2011-02-06T08:25:46Z</time>
      </trkpt>
      <trkpt lat="49.01091" lon="1.08983">
        <ele>117.9</ele>
        <time>2011-02-06T08:25:57Z</time>
      </trkpt>
      <trkpt lat="49.01088" lon="1.08976">
        <ele>121.26</ele>
        <time>2011-02-06T08:25:59Z</time>
      </trkpt>
      <trkpt lat="49.01082" lon="1.08964">
        <ele>117.9</ele>
        <time>2011-02-06T08:26:03Z</time>
      </trkpt>
      <trkpt lat="49.01072" lon="1.08946">
        <ele>121.26</ele>
        <time>2011-02-06T08:26:09Z</time>
      </trkpt>
      <trkpt lat="49.01064" lon="1.08931">
        <ele>117.9</ele>
        <time>2011-02-06T08:26:14Z</time>
      </trkpt>
      <trkpt lat="49.01062" lon="1.08928">
        <ele>118.38</ele>
        <time>2011-02-06T08:26:15Z</time>
      </trkpt>
      <trkpt lat="49.01043" lon="1.0889">
        <ele>118.86</ele>
        <time>2011-02-06T08:26:27Z</time>
      </trkpt>
      <trkpt lat="49.01036" lon="1.08878">
        <ele>115.5</ele>
        <time>2011-02-06T08:26:31Z</time>
      </trkpt>
      <trkpt lat="49.01035" lon="1.08875">
        <ele>117.9</ele>
        <time>2011-02-06T08:26:32Z</time>
      </trkpt>
      <trkpt lat="49.01031" lon="1.0887">
        <ele>119.82</ele>
        <time>2011-02-06T08:26:34Z</time>
      </trkpt>
      <trkpt lat="49.01029" lon="1.08864">
        <ele>116.46</ele>
        <time>2011-02-06T08:26:36Z</time>
      </trkpt>
      <trkpt lat="49.01009" lon="1.08834">
        <ele>120.78</ele>
        <time>2011-02-06T08:26:47Z</time>
      </trkpt>
      <trkpt lat="49.01008" lon="1.08831">
        <ele>120.78</ele>
        <time>2011-02-06T08:26:48Z</time>
      </trkpt>
      <trkpt lat="49.00985" lon="1.08811">
        <ele>120.78</ele>
        <time>2011-02-06T08:26:59Z</time>
      </trkpt>
      <trkpt lat="49.0096" lon="1.08789">
        <ele>119.82</ele>
        <time>2011-02-06T08:27:10Z</time>
      </trkpt>
      <trkpt lat="49.00953" lon="1.08786">
        <ele>121.74</ele>
        <time>2011-02-06T08:27:13Z</time>
      </trkpt>
      <trkpt lat="49.00934" lon="1.0879">
        <ele>121.74</ele>
        <time>2011-02-06T08:27:21Z</time>
      </trkpt>
      <trkpt lat="49.0093" lon="1.08789">
        <ele>122.71</ele>
        <time>2011-02-06T08:27:23Z</time>
      </trkpt>
      <trkpt lat="49.00917" lon="1.08787">
        <ele>118.86</ele>
        <time>2011-02-06T08:27:28Z</time>
      </trkpt>
      <trkpt lat="49.00915" lon="1.08787">
        <ele>122.22</ele>
        <time>2011-02-06T08:27:29Z</time>
      </trkpt>
      <trkpt lat="49.00894" lon="1.08789">
        <ele>120.3</ele>
        <time>2011-02-06T08:27:37Z</time>
      </trkpt>
      <trkpt lat="49.00882" lon="1.08788">
        <ele>120.3</ele>
        <time>2011-02-06T08:27:41Z</time>
      </trkpt>
      <trkpt lat="49.0087" lon="1.08786">
        <ele>119.82</ele>
        <time>2011-02-06T08:27:46Z</time>
      </trkpt>
      <trkpt lat="49.00844" lon="1.08796">
        <ele>120.78</ele>
        <time>2011-02-06T08:27:57Z</time>
      </trkpt>
      <trkpt lat="49.00841" lon="1.08792">
        <ele>119.82</ele>
        <time>2011-02-06T08:27:59Z</time>
      </trkpt>
      <trkpt lat="49.00831" lon="1.08767">
        <ele>120.78</ele>
        <time>2011-02-06T08:28:07Z</time>
      </trkpt>
      <trkpt lat="49.0081" lon="1.08741">
        <ele>122.71</ele>
        <time>2011-02-06T08:28:18Z</time>
      </trkpt>
      <trkpt lat="49.00806" lon="1.08741">
        <ele>119.34</ele>
        <time>2011-02-06T08:28:19Z</time>
      </trkpt>
      <trkpt lat="49.00784" lon="1.08754">
        <ele>122.22</ele>
        <time>2011-02-06T08:28:26Z</time>
      </trkpt>
      <trkpt lat="49.00779" lon="1.08757">
        <ele>118.86</ele>
        <time>2011-02-06T08:28:28Z</time>
      </trkpt>
      <trkpt lat="49.00776" lon="1.08758">
        <ele>120.3</ele>
        <time>2011-02-06T08:28:29Z</time>
      </trkpt>
      <trkpt lat="49.00763" lon="1.08763">
        <ele>116.46</ele>
        <time>2011-02-06T08:28:34Z</time>
      </trkpt>
      <trkpt lat="49.0076" lon="1.08765">
        <ele>116.46</ele>
        <time>2011-02-06T08:28:35Z</time>
      </trkpt>
      <trkpt lat="49.00757" lon="1.08766">
        <ele>120.3</ele>
        <time>2011-02-06T08:28:36Z</time>
      </trkpt>
      <trkpt lat="49.00725" lon="1.08784">
        <ele>118.38</ele>
        <time>2011-02-06T08:28:49Z</time>
      </trkpt>
      <trkpt lat="49.00696" lon="1.08807">
        <ele>119.82</ele>
        <time>2011-02-06T08:29:02Z</time>
      </trkpt>
      <trkpt lat="49.00686" lon="1.08813">
        <ele>121.26</ele>
        <time>2011-02-06T08:29:06Z</time>
      </trkpt>
      <trkpt lat="49.0068" lon="1.08815">
        <ele>119.82</ele>
        <time>2011-02-06T08:29:08Z</time>
      </trkpt>
      <trkpt lat="49.00647" lon="1.08833">
        <ele>119.34</ele>
        <time>2011-02-06T08:29:21Z</time>
      </trkpt>
      <trkpt lat="49.00616" lon="1.08852">
        <ele>119.82</ele>
        <time>2011-02-06T08:29:33Z</time>
      </trkpt>
      <trkpt lat="49.00585" lon="1.08868">
        <ele>120.3</ele>
        <time>2011-02-06T08:29:45Z</time>
      </trkpt>
      <trkpt lat="49.00555" lon="1.08886">
        <ele>120.3</ele>
        <time>2011-02-06T08:29:57Z</time>
      </trkpt>
      <trkpt lat="49.0054" lon="1.08895">
        <ele>120.3</ele>
        <time>2011-02-06T08:30:03Z</time>
      </trkpt>
      <trkpt lat="49.00511" lon="1.08913">
        <ele>122.71</ele>
        <time>2011-02-06T08:30:15Z</time>
      </trkpt>
      <trkpt lat="49.00506" lon="1.08916">
        <ele>121.26</ele>
        <time>2011-02-06T08:30:17Z</time>
      </trkpt>
      <trkpt lat="49.00469" lon="1.08937">
        <ele>120.3</ele>
        <time>2011-02-06T08:30:31Z</time>
      </trkpt>
      <trkpt lat="49.00439" lon="1.08953">
        <ele>122.22</ele>
        <time>2011-02-06T08:30:42Z</time>
      </trkpt>
      <trkpt lat="49.0041" lon="1.08972">
        <ele>119.82</ele>
        <time>2011-02-06T08:30:54Z</time>
      </trkpt>
      <trkpt lat="49.00372" lon="1.08993">
        <ele>120.3</ele>
        <time>2011-02-06T08:31:07Z</time>
      </trkpt>
      <trkpt lat="49.00339" lon="1.09014">
        <ele>118.86</ele>
        <time>2011-02-06T08:31:19Z</time>
      </trkpt>
      <trkpt lat="49.00326" lon="1.09022">
        <ele>116.46</ele>
        <time>2011-02-06T08:31:24Z</time>
      </trkpt>
      <trkpt lat="49.00307" lon="1.0903">
        <ele>115.01</ele>
        <time>2011-02-06T08:31:31Z</time>
      </trkpt>
      <trkpt lat="49.00276" lon="1.09049">
        <ele>113.57</ele>
        <time>2011-02-06T08:31:41Z</time>
      </trkpt>
      <trkpt lat="49.00256" lon="1.0908">
        <ele>111.17</ele>
        <time>2011-02-06T08:31:49Z</time>
      </trkpt>
      <trkpt lat="49.00244" lon="1.09073">
        <ele>110.69</ele>
        <time>2011-02-06T08:31:55Z</time>
      </trkpt>
      <trkpt lat="49.00241" lon="1.09065">
        <ele>112.61</ele>
        <time>2011-02-06T08:31:57Z</time>
      </trkpt>
      <trkpt lat="49.00222" lon="1.09023">
        <ele>112.13</ele>
        <time>2011-02-06T08:32:08Z</time>
      </trkpt>
      <trkpt lat="49.0021" lon="1.08982">
        <ele>114.05</ele>
        <time>2011-02-06T08:32:19Z</time>
      </trkpt>
      <trkpt lat="49.0021" lon="1.08969">
        <ele>114.05</ele>
        <time>2011-02-06T08:32:22Z</time>
      </trkpt>
      <trkpt lat="49.00216" lon="1.08951">
        <ele>112.13</ele>
        <time>2011-02-06T08:32:27Z</time>
      </trkpt>
      <trkpt lat="49.00248" lon="1.08946">
        <ele>110.69</ele>
        <time>2011-02-06T08:32:39Z</time>
      </trkpt>
    </trkseg>
  </trk>
</gpx>